Time,TemperatureF,DewpointF,PressureIn,WindDirection,WindDirectionDegrees,WindSpeedMPH,WindSpeedGustMPH,Humidity,HourlyPrecipIn,Conditions,Clouds,dailyrainin,SoftwareType,DateUTC
2013-03-16 00:03:00,57.2,29.1,29.71,NW,305,4.0,9.0,34,0.00,,,0.00,Wunderground v.1.15,2013-03-16 06:03:00,
2013-03-16 00:05:00,57.0,28.9,29.71,North,357,7.0,11.0,34,0.00,,,0.00,Wunderground v.1.15,2013-03-16 06:05:00,
2013-03-16 00:07:00,57.0,28.9,29.71,NNE,23,4.0,11.0,34,0.00,,,0.00,Wunderground v.1.15,2013-03-16 06:07:00,
2013-03-16 00:10:00,56.5,29.1,29.71,North,354,7.0,7.0,35,0.00,,,0.00,Wunderground v.1.15,2013-03-16 06:10:00,
2013-03-16 00:12:00,56.1,28.8,29.71,NE,49,6.0,7.0,35,0.00,,,0.00,Wunderground v.1.15,2013-03-16 06:12:00,
2013-03-16 00:14:00,56.4,28.3,29.71,NNW,332,11.0,11.0,34,0.00,,,0.00,Wunderground v.1.15,2013-03-16 06:14:00,
2013-03-16 00:15:00,56.8,28.0,29.71,NW,315,10.0,11.0,33,0.00,,,0.00,Wunderground v.1.15,2013-03-16 06:15:00,
2013-03-16 00:18:00,57.9,28.2,29.71,NW,307,3.0,12.0,32,0.00,,,0.00,Wunderground v.1.15,2013-03-16 06:18:00,
2013-03-16 00:19:00,58.2,27.7,29.71,North,350,7.0,12.0,31,0.00,,,0.00,Wunderground v.1.15,2013-03-16 06:19:00,
2013-03-16 00:20:00,58.3,27.8,29.71,NW,307,8.0,8.0,31,0.00,,,0.00,Wunderground v.1.15,2013-03-16 06:20:00,
2013-03-16 00:23:00,58.4,27.9,29.71,NNE,18,4.0,8.0,31,0.00,,,0.00,Wunderground v.1.15,2013-03-16 06:23:00,
2013-03-16 00:24:00,58.4,27.9,29.71,WNW,288,4.0,8.0,31,0.00,,,0.00,Wunderground v.1.15,2013-03-16 06:24:00,
2013-03-16 00:30:00,57.6,28.7,29.71,East,101,1.0,4.0,33,0.00,,,0.00,Wunderground v.1.15,2013-03-16 06:30:00,
2013-03-16 00:36:00,55.6,29.7,29.72,ESE,105,0.0,4.0,37,0.00,,,0.00,Wunderground v.1.15,2013-03-16 06:36:00,
2013-03-16 00:39:00,54.7,29.6,29.71,NE,47,1.0,4.0,38,0.00,,,0.00,Wunderground v.1.15,2013-03-16 06:39:00,
2013-03-16 00:41:00,53.9,29.5,29.72,NE,47,0.0,2.0,39,0.00,,,0.00,Wunderground v.1.15,2013-03-16 06:41:00,
2013-03-16 00:43:00,53.3,29.6,29.71,WNW,283,2.0,2.0,40,0.00,,,0.00,Wunderground v.1.15,2013-03-16 06:43:00,
2013-03-16 00:44:00,53.1,29.4,29.71,West,259,1.0,2.0,40,0.00,,,0.00,Wunderground v.1.15,2013-03-16 06:44:00,
2013-03-16 00:45:00,53.0,29.3,29.71,West,259,0.0,2.0,40,0.00,,,0.00,Wunderground v.1.15,2013-03-16 06:45:00,
2013-03-16 00:48:00,52.8,29.7,29.71,ESE,115,3.0,3.0,41,0.00,,,0.00,Wunderground v.1.15,2013-03-16 06:48:00,
2013-03-16 00:50:00,52.8,29.7,29.71,ESE,102,0.0,1.0,41,0.00,,,0.00,Wunderground v.1.15,2013-03-16 06:50:00,
2013-03-16 00:51:00,52.7,29.6,29.71,East,101,0.0,1.0,41,0.00,,,0.00,Wunderground v.1.15,2013-03-16 06:51:00,
2013-03-16 00:52:00,52.6,29.5,29.71,SW,217,2.0,2.0,41,0.00,,,0.00,Wunderground v.1.15,2013-03-16 06:52:00,
2013-03-16 00:56:00,52.5,29.5,29.71,SW,225,5.0,5.0,41,0.00,,,0.00,Wunderground v.1.15,2013-03-16 06:56:00,
2013-03-16 00:58:00,52.9,29.8,29.71,SW,219,1.0,5.0,41,0.00,,,0.00,Wunderground v.1.15,2013-03-16 06:58:00,
2013-03-16 00:59:00,53.1,29.4,29.71,SW,219,0.0,5.0,40,0.00,,,0.00,Wunderground v.1.15,2013-03-16 06:59:00,
2013-03-16 01:00:00,53.2,29.5,29.71,SSE,155,0.0,2.0,40,0.00,,,0.00,Wunderground v.1.15,2013-03-16 07:00:00,
2013-03-16 01:03:00,53.1,29.4,29.70,NW,315,3.0,4.0,40,0.00,,,0.00,Wunderground v.1.15,2013-03-16 07:03:00,
2013-03-16 01:08:00,53.3,29.6,29.70,SW,236,4.0,4.0,40,0.00,,,0.00,Wunderground v.1.15,2013-03-16 07:08:00,
2013-03-16 01:13:00,54.2,28.5,29.70,NNE,12,4.0,6.0,37,0.00,,,0.00,Wunderground v.1.15,2013-03-16 07:13:00,
2013-03-16 01:16:00,55.5,27.6,29.70,NNW,330,3.0,9.0,34,0.00,,,0.00,Wunderground v.1.15,2013-03-16 07:16:00,
2013-03-16 01:17:00,55.9,27.2,29.70,North,354,3.0,9.0,33,0.00,,,0.00,Wunderground v.1.15,2013-03-16 07:17:00,
2013-03-16 01:21:00,57.2,26.8,29.70,North,349,11.0,11.0,31,0.00,,,0.00,Wunderground v.1.15,2013-03-16 07:21:00,
2013-03-16 01:23:00,57.6,27.2,29.70,NNE,18,3.0,11.0,31,0.00,,,0.00,Wunderground v.1.15,2013-03-16 07:23:00,
2013-03-16 01:25:00,58.0,25.9,29.70,NW,317,14.0,14.0,29,0.00,,,0.00,Wunderground v.1.15,2013-03-16 07:25:00,
2013-03-16 01:27:00,58.2,26.9,29.70,NNW,328,7.0,14.0,30,0.00,,,0.00,Wunderground v.1.15,2013-03-16 07:27:00,
2013-03-16 01:28:00,58.3,26.1,29.70,NW,314,3.0,14.0,29,0.00,,,0.00,Wunderground v.1.15,2013-03-16 07:28:00,
2013-03-16 01:29:00,58.4,26.2,29.70,NW,326,10.0,14.0,29,0.00,,,0.00,Wunderground v.1.15,2013-03-16 07:29:00,
2013-03-16 01:30:00,58.5,26.3,29.70,NNW,333,19.0,19.0,29,0.00,,,0.00,Wunderground v.1.15,2013-03-16 07:30:00,
2013-03-16 01:34:00,59.0,26.8,29.70,NNE,13,23.0,23.0,29,0.00,,,0.00,Wunderground v.1.15,2013-03-16 07:34:00,
2013-03-16 01:37:00,59.1,26.8,29.70,SW,233,4.0,23.0,29,0.00,,,0.00,Wunderground v.1.15,2013-03-16 07:37:00,
2013-03-16 01:40:00,59.0,26.8,29.71,North,360,11.0,11.0,29,0.00,,,0.00,Wunderground v.1.15,2013-03-16 07:40:00,
2013-03-16 01:41:00,59.0,26.8,29.71,NW,317,19.0,19.0,29,0.00,,,0.00,Wunderground v.1.15,2013-03-16 07:41:00,
2013-03-16 01:43:00,59.1,26.8,29.72,WNW,301,20.0,20.0,29,0.00,,,0.00,Wunderground v.1.15,2013-03-16 07:43:00,
2013-03-16 01:46:00,59.2,26.9,29.72,NNW,344,17.0,20.0,29,0.00,,,0.00,Wunderground v.1.15,2013-03-16 07:46:00,
2013-03-16 01:47:00,59.2,26.9,29.72,NNW,343,12.0,20.0,29,0.00,,,0.00,Wunderground v.1.15,2013-03-16 07:47:00,
2013-03-16 01:52:00,59.3,27.0,29.72,SW,218,3.0,17.0,29,0.00,,,0.00,Wunderground v.1.15,2013-03-16 07:52:00,
2013-03-16 01:53:00,59.3,27.0,29.72,West,269,8.0,17.0,29,0.00,,,0.00,Wunderground v.1.15,2013-03-16 07:53:00,
2013-03-16 01:54:00,59.2,26.9,29.71,West,276,8.0,17.0,29,0.00,,,0.00,Wunderground v.1.15,2013-03-16 07:54:00,
2013-03-16 01:57:00,59.1,26.8,29.72,NW,314,14.0,23.0,29,0.00,,,0.00,Wunderground v.1.15,2013-03-16 07:57:00,
2013-03-16 01:59:00,59.0,27.6,29.72,WNW,293,9.0,23.0,30,0.00,,,0.00,Wunderground v.1.15,2013-03-16 07:59:00,
2013-03-16 02:00:00,59.0,26.8,29.72,West,270,8.0,10.0,29,0.00,,,0.00,Wunderground v.1.15,2013-03-16 08:00:00,
2013-03-16 02:02:00,58.8,27.4,29.72,NW,309,6.0,14.0,30,0.00,,,0.00,Wunderground v.1.15,2013-03-16 08:02:00,
2013-03-16 02:04:00,58.8,27.4,29.72,NNE,13,4.0,14.0,30,0.00,,,0.00,Wunderground v.1.15,2013-03-16 08:04:00,
2013-03-16 02:05:00,58.7,27.3,29.72,NNW,344,2.0,14.0,30,0.00,,,0.00,Wunderground v.1.15,2013-03-16 08:05:00,
2013-03-16 02:06:00,58.7,27.3,29.72,NNW,340,4.0,14.0,30,0.00,,,0.00,Wunderground v.1.15,2013-03-16 08:06:00,
2013-03-16 02:07:00,58.5,27.1,29.72,NW,326,16.0,17.0,30,0.00,,,0.00,Wunderground v.1.15,2013-03-16 08:07:00,
2013-03-16 02:09:00,58.4,27.1,29.71,WNW,289,4.0,17.0,30,0.00,,,0.00,Wunderground v.1.15,2013-03-16 08:09:00,
2013-03-16 02:11:00,58.4,27.1,29.71,NW,317,6.0,11.0,30,0.00,,,0.00,Wunderground v.1.15,2013-03-16 08:11:00,
2013-03-16 02:12:00,58.3,27.8,29.72,WNW,288,4.0,11.0,31,0.00,,,0.00,Wunderground v.1.15,2013-03-16 08:12:00,
2013-03-16 02:14:00,58.1,27.6,29.72,NW,307,1.0,11.0,31,0.00,,,0.00,Wunderground v.1.15,2013-03-16 08:14:00,
2013-03-16 02:16:00,58.0,27.5,29.72,North,356,3.0,11.0,31,0.00,,,0.00,Wunderground v.1.15,2013-03-16 08:16:00,
2013-03-16 02:17:00,57.9,27.4,29.72,NNW,332,5.0,11.0,31,0.00,,,0.00,Wunderground v.1.15,2013-03-16 08:17:00,
2013-03-16 02:19:00,57.8,27.3,29.72,NNW,330,5.0,11.0,31,0.00,,,0.00,Wunderground v.1.15,2013-03-16 08:19:00,
2013-03-16 02:21:00,57.8,27.3,29.72,NNW,330,4.0,9.0,31,0.00,,,0.00,Wunderground v.1.15,2013-03-16 08:21:00,
2013-03-16 02:22:00,57.8,26.5,29.72,WNW,290,3.0,9.0,30,0.00,,,0.00,Wunderground v.1.15,2013-03-16 08:22:00,
2013-03-16 02:24:00,57.8,27.3,29.72,WNW,296,4.0,9.0,31,0.00,,,0.00,Wunderground v.1.15,2013-03-16 08:24:00,
2013-03-16 02:26:00,57.7,27.2,29.72,NW,305,9.0,14.0,31,0.00,,,0.00,Wunderground v.1.15,2013-03-16 08:26:00,
2013-03-16 02:27:00,57.7,27.2,29.72,WNW,300,9.0,14.0,31,0.00,,,0.00,Wunderground v.1.15,2013-03-16 08:27:00,
2013-03-16 02:29:00,57.7,27.2,29.72,WNW,303,4.0,14.0,31,0.00,,,0.00,Wunderground v.1.15,2013-03-16 08:29:00,
2013-03-16 02:31:00,57.6,27.2,29.72,West,277,2.0,4.0,31,0.00,,,0.00,Wunderground v.1.15,2013-03-16 08:31:00,
2013-03-16 02:32:00,57.6,27.2,29.72,WNW,283,1.0,4.0,31,0.00,,,0.00,Wunderground v.1.15,2013-03-16 08:32:00,
2013-03-16 02:33:00,57.4,27.0,29.72,WNW,283,3.0,5.0,31,0.00,,,0.00,Wunderground v.1.15,2013-03-16 08:33:00,
2013-03-16 02:35:00,57.2,26.8,29.72,West,276,1.0,5.0,31,0.00,,,0.00,Wunderground v.1.15,2013-03-16 08:35:00,
2013-03-16 02:36:00,57.0,26.6,29.72,WSW,255,0.0,5.0,31,0.00,,,0.00,Wunderground v.1.15,2013-03-16 08:36:00,
2013-03-16 02:37:00,56.9,26.5,29.72,WSW,255,0.0,5.0,31,0.00,,,0.00,Wunderground v.1.15,2013-03-16 08:37:00,
2013-03-16 02:39:00,56.7,27.1,29.72,West,259,4.0,5.0,32,0.00,,,0.00,Wunderground v.1.15,2013-03-16 08:39:00,
2013-03-16 02:40:00,56.6,27.0,29.72,SW,231,1.0,3.0,32,0.00,,,0.00,Wunderground v.1.15,2013-03-16 08:40:00,
2013-03-16 02:41:00,56.3,26.8,29.72,WSW,246,5.0,5.0,32,0.00,,,0.00,Wunderground v.1.15,2013-03-16 08:41:00,
2013-03-16 02:42:00,56.3,26.8,29.72,WSW,238,4.0,5.0,32,0.00,,,0.00,Wunderground v.1.15,2013-03-16 08:42:00,
2013-03-16 02:44:00,56.3,27.5,29.72,SSW,194,3.0,6.0,33,0.00,,,0.00,Wunderground v.1.15,2013-03-16 08:44:00,
2013-03-16 02:46:00,55.8,27.1,29.73,SSW,208,4.0,6.0,33,0.00,,,0.00,Wunderground v.1.15,2013-03-16 08:46:00,
2013-03-16 02:47:00,55.6,26.9,29.73,SSW,194,5.0,6.0,33,0.00,,,0.00,Wunderground v.1.15,2013-03-16 08:47:00,
2013-03-16 02:49:00,54.9,29.7,29.73,South,170,9.0,12.0,38,0.00,,,0.00,Wunderground v.1.15,2013-03-16 08:49:00,
2013-03-16 02:51:00,53.7,29.9,29.74,SSW,198,3.0,9.0,40,0.00,,,0.00,Wunderground v.1.15,2013-03-16 08:51:00,
2013-03-16 02:52:00,53.5,30.4,29.74,SSW,212,6.0,9.0,41,0.00,,,0.00,Wunderground v.1.15,2013-03-16 08:52:00,
2013-03-16 02:54:00,52.6,30.7,29.74,SSW,210,6.0,9.0,43,0.00,,,0.00,Wunderground v.1.15,2013-03-16 08:54:00,
2013-03-16 02:56:00,51.9,31.2,29.75,SW,225,10.0,10.0,45,0.00,,,0.00,Wunderground v.1.15,2013-03-16 08:56:00,
2013-03-16 02:58:00,51.6,30.9,29.75,South,188,4.0,11.0,45,0.00,,,0.00,Wunderground v.1.15,2013-03-16 08:58:00,
2013-03-16 02:59:00,51.3,31.2,29.75,SSW,211,10.0,11.0,46,0.00,,,0.00,Wunderground v.1.15,2013-03-16 08:59:00,
2013-03-16 03:01:00,50.9,31.4,29.75,SSW,205,6.0,8.0,47,0.00,,,0.00,Wunderground v.1.15,2013-03-16 09:01:00,
2013-03-16 03:03:00,50.8,31.3,29.76,SSW,208,5.0,10.0,47,0.00,,,0.00,Wunderground v.1.15,2013-03-16 09:03:00,
2013-03-16 03:04:00,50.8,31.8,29.76,SSW,201,7.0,10.0,48,0.00,,,0.00,Wunderground v.1.15,2013-03-16 09:04:00,
2013-03-16 03:06:00,50.5,31.5,29.76,SSW,212,6.0,10.0,48,0.00,,,0.00,Wunderground v.1.15,2013-03-16 09:06:00,
2013-03-16 03:09:00,50.4,31.4,29.76,SSW,198,4.0,10.0,48,0.00,,,0.00,Wunderground v.1.15,2013-03-16 09:09:00,
2013-03-16 03:12:00,50.1,30.6,29.76,SSE,150,6.0,11.0,47,0.00,,,0.00,Wunderground v.1.15,2013-03-16 09:12:00,
2013-03-16 03:14:00,49.8,30.4,29.76,ESE,106,2.0,11.0,47,0.00,,,0.00,Wunderground v.1.15,2013-03-16 09:14:00,
2013-03-16 03:15:00,49.6,30.2,29.76,SE,130,1.0,11.0,47,0.00,,,0.00,Wunderground v.1.15,2013-03-16 09:15:00,
2013-03-16 03:17:00,49.4,30.0,29.76,East,94,3.0,11.0,47,0.00,,,0.00,Wunderground v.1.15,2013-03-16 09:17:00,
2013-03-16 03:19:00,49.2,29.8,29.76,ESE,105,6.0,11.0,47,0.00,,,0.00,Wunderground v.1.15,2013-03-16 09:19:00,
2013-03-16 03:20:00,49.0,29.6,29.76,East,93,1.0,5.0,47,0.00,,,0.00,Wunderground v.1.15,2013-03-16 09:20:00,
2013-03-16 03:22:00,48.7,29.9,29.77,ESE,110,4.0,5.0,48,0.00,,,0.00,Wunderground v.1.15,2013-03-16 09:22:00,
2013-03-16 03:23:00,48.5,29.2,29.77,ESE,103,6.0,6.0,47,0.00,,,0.00,Wunderground v.1.15,2013-03-16 09:23:00,
2013-03-16 03:24:00,48.4,29.1,29.77,ESE,103,7.0,7.0,47,0.00,,,0.00,Wunderground v.1.15,2013-03-16 09:24:00,
2013-03-16 03:25:00,48.1,29.3,29.77,SSE,163,2.0,11.0,48,0.00,,,0.00,Wunderground v.1.15,2013-03-16 09:25:00,
2013-03-16 03:27:00,47.8,29.0,29.77,East,97,2.0,11.0,48,0.00,,,0.00,Wunderground v.1.15,2013-03-16 09:27:00,
2013-03-16 03:28:00,47.7,28.9,29.76,North,1,1.0,11.0,48,0.00,,,0.00,Wunderground v.1.15,2013-03-16 09:28:00,
2013-03-16 03:29:00,47.6,28.9,29.76,NE,54,2.0,11.0,48,0.00,,,0.00,Wunderground v.1.15,2013-03-16 09:29:00,
2013-03-16 03:30:00,47.5,28.8,29.76,East,89,6.0,6.0,48,0.00,,,0.00,Wunderground v.1.15,2013-03-16 09:30:00,
2013-03-16 03:33:00,47.2,29.0,29.76,East,93,1.0,7.0,49,0.00,,,0.00,Wunderground v.1.15,2013-03-16 09:33:00,
2013-03-16 03:35:00,47.0,28.8,29.77,SE,134,2.0,7.0,49,0.00,,,0.00,Wunderground v.1.15,2013-03-16 09:35:00,
2013-03-16 03:36:00,47.0,28.8,29.77,SE,131,1.0,7.0,49,0.00,,,0.00,Wunderground v.1.15,2013-03-16 09:36:00,
2013-03-16 03:38:00,46.8,28.6,29.77,SW,231,3.0,7.0,49,0.00,,,0.00,Wunderground v.1.15,2013-03-16 09:38:00,
2013-03-16 03:44:00,46.6,28.9,29.78,SSW,205,1.0,2.0,50,0.00,,,0.00,Wunderground v.1.15,2013-03-16 09:44:00,
2013-03-16 03:49:00,46.3,28.7,29.78,South,186,2.0,2.0,50,0.00,,,0.00,Wunderground v.1.15,2013-03-16 09:49:00,
2013-03-16 03:50:00,46.3,29.1,29.78,SW,221,3.0,3.0,51,0.00,,,0.00,Wunderground v.1.15,2013-03-16 09:50:00,
2013-03-16 03:54:00,45.9,28.8,29.78,WSW,239,2.0,4.0,51,0.00,,,0.00,Wunderground v.1.15,2013-03-16 09:54:00,
2013-03-16 03:55:00,45.8,28.7,29.78,WSW,249,6.0,6.0,51,0.00,,,0.00,Wunderground v.1.15,2013-03-16 09:55:00,
2013-03-16 04:00:00,45.6,29.0,29.79,SW,231,2.0,6.0,52,0.00,,,0.00,Wunderground v.1.15,2013-03-16 10:00:00,
2013-03-16 04:01:00,45.6,29.0,29.79,SW,223,3.0,3.0,52,0.00,,,0.00,Wunderground v.1.15,2013-03-16 10:01:00,
2013-03-16 04:05:00,45.5,29.3,29.79,SW,231,3.0,4.0,53,0.00,,,0.00,Wunderground v.1.15,2013-03-16 10:05:00,
2013-03-16 04:07:00,45.3,29.6,29.79,WSW,240,4.0,5.0,54,0.00,,,0.00,Wunderground v.1.15,2013-03-16 10:07:00,
2013-03-16 04:08:00,45.3,29.6,29.79,SW,232,5.0,5.0,54,0.00,,,0.00,Wunderground v.1.15,2013-03-16 10:08:00,
2013-03-16 04:10:00,45.2,30.0,29.79,WSW,238,5.0,6.0,55,0.00,,,0.00,Wunderground v.1.15,2013-03-16 10:10:00,
2013-03-16 04:12:00,45.1,29.9,29.79,SSW,208,4.0,6.0,55,0.00,,,0.00,Wunderground v.1.15,2013-03-16 10:12:00,
2013-03-16 04:13:00,45.1,29.9,29.79,SSW,212,4.0,6.0,55,0.00,,,0.00,Wunderground v.1.15,2013-03-16 10:13:00,
2013-03-16 04:15:00,44.9,29.7,29.80,SSW,208,4.0,6.0,55,0.00,,,0.00,Wunderground v.1.15,2013-03-16 10:15:00,
2013-03-16 04:17:00,44.8,29.2,29.80,SW,226,3.0,6.0,54,0.00,,,0.00,Wunderground v.1.15,2013-03-16 10:17:00,
2013-03-16 04:18:00,44.8,29.6,29.80,SW,218,2.0,6.0,55,0.00,,,0.00,Wunderground v.1.15,2013-03-16 10:18:00,
2013-03-16 04:21:00,44.8,29.6,29.80,SW,229,2.0,4.0,55,0.00,,,0.00,Wunderground v.1.15,2013-03-16 10:21:00,
2013-03-16 04:22:00,44.7,29.5,29.80,SW,228,2.0,4.0,55,0.00,,,0.00,Wunderground v.1.15,2013-03-16 10:22:00,
2013-03-16 04:23:00,44.7,29.5,29.80,SW,228,2.0,4.0,55,0.00,,,0.00,Wunderground v.1.15,2013-03-16 10:23:00,
2013-03-16 04:27:00,44.5,29.3,29.80,WSW,240,3.0,4.0,55,0.00,,,0.00,Wunderground v.1.15,2013-03-16 10:27:00,
2013-03-16 04:28:00,44.4,29.2,29.80,SSW,197,2.0,4.0,55,0.00,,,0.00,Wunderground v.1.15,2013-03-16 10:28:00,
2013-03-16 04:32:00,44.2,29.5,29.80,South,174,1.0,2.0,56,0.00,,,0.00,Wunderground v.1.15,2013-03-16 10:32:00,
2013-03-16 04:33:00,44.1,29.4,29.80,WSW,250,1.0,2.0,56,0.00,,,0.00,Wunderground v.1.15,2013-03-16 10:33:00,
2013-03-16 04:34:00,44.1,29.4,29.80,WSW,256,1.0,2.0,56,0.00,,,0.00,Wunderground v.1.15,2013-03-16 10:34:00,
2013-03-16 04:36:00,43.8,29.5,29.80,SSW,195,3.0,3.0,57,0.00,,,0.00,Wunderground v.1.15,2013-03-16 10:36:00,
2013-03-16 04:38:00,43.6,29.4,29.80,SSW,205,2.0,4.0,57,0.00,,,0.00,Wunderground v.1.15,2013-03-16 10:38:00,
2013-03-16 04:39:00,43.5,29.3,29.80,SW,222,2.0,4.0,57,0.00,,,0.00,Wunderground v.1.15,2013-03-16 10:39:00,
2013-03-16 04:42:00,43.2,29.4,29.80,SW,228,3.0,4.0,58,0.00,,,0.00,Wunderground v.1.15,2013-03-16 10:42:00,
2013-03-16 04:44:00,43.0,29.2,29.81,SSW,212,3.0,4.0,58,0.00,,,0.00,Wunderground v.1.15,2013-03-16 10:44:00,
2013-03-16 04:47:00,42.9,29.5,29.81,SSW,205,2.0,4.0,59,0.00,,,0.00,Wunderground v.1.15,2013-03-16 10:47:00,
2013-03-16 04:49:00,43.0,29.6,29.81,SSE,156,3.0,4.0,59,0.00,,,0.00,Wunderground v.1.15,2013-03-16 10:49:00,
2013-03-16 04:52:00,43.2,29.8,29.81,SSE,156,0.0,3.0,59,0.00,,,0.00,Wunderground v.1.15,2013-03-16 10:52:00,
2013-03-16 04:54:00,43.3,29.9,29.81,SSW,207,0.0,3.0,59,0.00,,,0.00,Wunderground v.1.15,2013-03-16 10:54:00,
2013-03-16 04:58:00,43.2,29.8,29.81,SSW,212,1.0,3.0,59,0.00,,,0.00,Wunderground v.1.15,2013-03-16 10:58:00,
2013-03-16 04:59:00,43.1,29.7,29.81,South,186,0.0,3.0,59,0.00,,,0.00,Wunderground v.1.15,2013-03-16 10:59:00,
2013-03-16 05:03:00,43.1,30.1,29.81,SSE,158,0.0,1.0,60,0.00,,,0.00,Wunderground v.1.15,2013-03-16 11:03:00,
2013-03-16 05:04:00,43.1,30.1,29.81,SSE,158,1.0,1.0,60,0.00,,,0.00,Wunderground v.1.15,2013-03-16 11:04:00,
2013-03-16 05:05:00,43.1,30.1,29.81,SSE,158,0.0,1.0,60,0.00,,,0.00,Wunderground v.1.15,2013-03-16 11:05:00,
2013-03-16 05:08:00,43.1,30.1,29.81,SSW,205,1.0,1.0,60,0.00,,,0.00,Wunderground v.1.15,2013-03-16 11:08:00,
2013-03-16 05:11:00,43.1,30.1,29.81,SSW,206,0.0,0.0,60,0.00,,,0.00,Wunderground v.1.15,2013-03-16 11:11:00,
2013-03-16 05:13:00,42.9,30.4,29.81,SW,219,1.0,2.0,61,0.00,,,0.00,Wunderground v.1.15,2013-03-16 11:13:00,
2013-03-16 05:16:00,42.8,30.3,29.81,SW,220,1.0,2.0,61,0.00,,,0.00,Wunderground v.1.15,2013-03-16 11:16:00,
2013-03-16 05:18:00,42.6,30.1,29.82,SW,221,1.0,2.0,61,0.00,,,0.00,Wunderground v.1.15,2013-03-16 11:18:00,
2013-03-16 05:21:00,42.4,30.3,29.82,SW,221,1.0,1.0,62,0.00,,,0.00,Wunderground v.1.15,2013-03-16 11:21:00,
2013-03-16 05:23:00,42.1,30.0,29.82,SW,222,1.0,2.0,62,0.00,,,0.00,Wunderground v.1.15,2013-03-16 11:23:00,
2013-03-16 05:26:00,41.7,30.0,29.82,North,350,0.0,2.0,63,0.00,,,0.00,Wunderground v.1.15,2013-03-16 11:26:00,
2013-03-16 05:27:00,41.6,29.9,29.82,North,350,0.0,2.0,63,0.00,,,0.00,Wunderground v.1.15,2013-03-16 11:27:00,
2013-03-16 05:28:00,41.5,29.8,29.82,North,350,0.0,2.0,63,0.00,,,0.00,Wunderground v.1.15,2013-03-16 11:28:00,
2013-03-16 05:32:00,41.1,29.8,29.82,North,351,0.0,1.0,64,0.00,,,0.00,Wunderground v.1.15,2013-03-16 11:32:00,
2013-03-16 05:34:00,40.8,29.6,29.82,North,350,0.0,1.0,64,0.00,,,0.00,Wunderground v.1.15,2013-03-16 11:34:00,
2013-03-16 05:37:00,40.5,29.7,29.82,North,350,0.0,1.0,65,0.00,,,0.00,Wunderground v.1.15,2013-03-16 11:37:00,
2013-03-16 05:39:00,40.4,29.9,29.83,NW,307,0.0,1.0,66,0.00,,,0.00,Wunderground v.1.15,2013-03-16 11:39:00,
2013-03-16 05:42:00,40.3,29.8,29.82,West,275,0.0,0.0,66,0.00,,,0.00,Wunderground v.1.15,2013-03-16 11:42:00,
2013-03-16 05:43:00,40.3,29.8,29.82,West,275,0.0,0.0,66,0.00,,,0.00,Wunderground v.1.15,2013-03-16 11:43:00,
2013-03-16 05:44:00,40.3,29.8,29.82,SSW,192,0.0,0.0,66,0.00,,,0.00,Wunderground v.1.15,2013-03-16 11:44:00,
2013-03-16 05:47:00,40.1,29.6,29.82,WSW,255,2.0,2.0,66,0.00,,,0.00,Wunderground v.1.15,2013-03-16 11:47:00,
2013-03-16 05:48:00,40.0,29.6,29.82,WSW,255,2.0,2.0,66,0.00,,,0.00,Wunderground v.1.15,2013-03-16 11:48:00,
2013-03-16 05:49:00,40.0,29.9,29.82,WSW,255,2.0,2.0,67,0.00,,,0.00,Wunderground v.1.15,2013-03-16 11:49:00,
2013-03-16 05:53:00,39.9,29.8,29.83,WSW,255,0.0,2.0,67,0.00,,,0.00,Wunderground v.1.15,2013-03-16 11:53:00,
2013-03-16 05:54:00,39.8,29.7,29.83,WSW,255,1.0,2.0,67,0.00,,,0.00,Wunderground v.1.15,2013-03-16 11:54:00,
2013-03-16 05:58:00,39.7,29.6,29.83,WSW,254,2.0,2.0,67,0.00,,,0.00,Wunderground v.1.15,2013-03-16 11:58:00,
2013-03-16 05:59:00,39.6,29.5,29.83,WSW,256,2.0,2.0,67,0.00,,,0.00,Wunderground v.1.15,2013-03-16 11:59:00,
2013-03-16 06:03:00,39.5,29.4,29.83,West,266,1.0,2.0,67,0.00,,,0.00,Wunderground v.1.15,2013-03-16 12:03:00,
2013-03-16 06:04:00,39.4,29.3,29.83,West,269,0.0,2.0,67,0.00,,,0.00,Wunderground v.1.15,2013-03-16 12:04:00,
2013-03-16 06:08:00,39.3,29.6,29.83,West,269,0.0,2.0,68,0.00,,,0.00,Wunderground v.1.15,2013-03-16 12:08:00,
2013-03-16 06:09:00,39.2,29.5,29.83,West,268,0.0,2.0,68,0.00,,,0.00,Wunderground v.1.15,2013-03-16 12:09:00,
2013-03-16 06:10:00,39.2,29.5,29.83,West,268,0.0,1.0,68,0.00,,,0.00,Wunderground v.1.15,2013-03-16 12:10:00,
2013-03-16 06:13:00,39.2,29.9,29.83,NE,37,0.0,2.0,69,0.00,,,0.00,Wunderground v.1.15,2013-03-16 12:13:00,
2013-03-16 06:14:00,39.2,29.9,29.83,NE,37,0.0,2.0,69,0.00,,,0.00,Wunderground v.1.15,2013-03-16 12:14:00,
2013-03-16 06:16:00,39.1,29.8,29.83,NE,37,0.0,2.0,69,0.00,,,0.00,Wunderground v.1.15,2013-03-16 12:16:00,
2013-03-16 06:19:00,39.0,29.7,29.83,NE,37,0.0,2.0,69,0.00,,,0.00,Wunderground v.1.15,2013-03-16 12:19:00,
2013-03-16 06:21:00,38.8,29.5,29.83,NE,37,0.0,1.0,69,0.00,,,0.00,Wunderground v.1.15,2013-03-16 12:21:00,
2013-03-16 06:24:00,38.6,29.7,29.83,NE,37,0.0,1.0,70,0.00,,,0.00,Wunderground v.1.15,2013-03-16 12:24:00,
2013-03-16 06:25:00,38.6,29.7,29.83,NE,37,0.0,1.0,70,0.00,,,0.00,Wunderground v.1.15,2013-03-16 12:25:00,
2013-03-16 06:26:00,38.5,29.6,29.83,NE,37,0.0,1.0,70,0.00,,,0.00,Wunderground v.1.15,2013-03-16 12:26:00,
2013-03-16 06:29:00,38.4,29.8,29.83,NE,37,0.0,1.0,71,0.00,,,0.00,Wunderground v.1.15,2013-03-16 12:29:00,
2013-03-16 06:30:00,38.4,29.5,29.83,NE,37,0.0,0.0,70,0.00,,,0.00,Wunderground v.1.15,2013-03-16 12:30:00,
2013-03-16 06:33:00,38.1,29.5,29.83,NE,37,0.0,0.0,71,0.00,,,0.00,Wunderground v.1.15,2013-03-16 12:33:00,
2013-03-16 06:34:00,38.1,29.9,29.83,NE,37,0.0,0.0,72,0.00,,,0.00,Wunderground v.1.15,2013-03-16 12:34:00,
2013-03-16 06:35:00,38.0,29.8,29.83,NE,37,0.0,0.0,72,0.00,,,0.00,Wunderground v.1.15,2013-03-16 12:35:00,
2013-03-16 06:38:00,38.0,29.8,29.83,NE,37,0.0,1.0,72,0.00,,,0.00,Wunderground v.1.15,2013-03-16 12:38:00,
2013-03-16 06:40:00,38.0,29.8,29.83,NE,37,0.0,0.0,72,0.00,,,0.00,Wunderground v.1.15,2013-03-16 12:40:00,
2013-03-16 06:41:00,37.9,29.7,29.83,NE,37,0.0,0.0,72,0.00,,,0.00,Wunderground v.1.15,2013-03-16 12:41:00,
2013-03-16 06:43:00,37.9,30.0,29.83,NE,37,0.0,0.0,73,0.00,,,0.00,Wunderground v.1.15,2013-03-16 12:43:00,
2013-03-16 06:45:00,37.8,29.9,29.83,NE,37,0.0,0.0,73,0.00,,,0.00,Wunderground v.1.15,2013-03-16 12:45:00,
2013-03-16 06:46:00,37.8,29.9,29.83,NE,37,0.0,0.0,73,0.00,,,0.00,Wunderground v.1.15,2013-03-16 12:46:00,
2013-03-16 06:49:00,37.7,29.8,29.83,NE,37,0.0,0.0,73,0.00,,,0.00,Wunderground v.1.15,2013-03-16 12:49:00,
2013-03-16 06:50:00,37.7,29.8,29.83,NE,37,0.0,0.0,73,0.00,,,0.00,Wunderground v.1.15,2013-03-16 12:50:00,
2013-03-16 06:51:00,37.7,29.8,29.83,NE,37,0.0,0.0,73,0.00,,,0.00,Wunderground v.1.15,2013-03-16 12:51:00,
2013-03-16 06:55:00,37.6,30.1,29.83,NE,36,0.0,1.0,74,0.00,,,0.00,Wunderground v.1.15,2013-03-16 12:55:00,
2013-03-16 06:56:00,37.7,30.2,29.84,NNW,340,0.0,1.0,74,0.00,,,0.00,Wunderground v.1.15,2013-03-16 12:56:00,
2013-03-16 07:01:00,37.6,30.1,29.84,NNW,341,0.0,0.0,74,0.00,,,0.00,Wunderground v.1.15,2013-03-16 13:01:00,
2013-03-16 07:03:00,37.6,30.1,29.84,NNW,342,0.0,0.0,74,0.00,,,0.00,Wunderground v.1.15,2013-03-16 13:03:00,
2013-03-16 07:07:00,37.6,30.4,29.84,NE,40,0.0,0.0,75,0.00,,,0.00,Wunderground v.1.15,2013-03-16 13:07:00,
2013-03-16 07:10:00,37.6,30.1,29.83,NE,40,0.0,0.0,74,0.00,,,0.00,Wunderground v.1.15,2013-03-16 13:10:00,
2013-03-16 07:12:00,37.5,30.0,29.84,NE,40,0.0,0.0,74,0.00,,,0.00,Wunderground v.1.15,2013-03-16 13:12:00,
2013-03-16 07:15:00,37.5,30.3,29.84,NE,40,0.0,0.0,75,0.00,,,0.00,Wunderground v.1.15,2013-03-16 13:15:00,
2013-03-16 07:16:00,37.5,30.3,29.84,NE,40,0.0,0.0,75,0.00,,,0.00,Wunderground v.1.15,2013-03-16 13:16:00,
2013-03-16 07:17:00,37.5,30.3,29.84,NE,40,0.0,0.0,75,0.00,,,0.00,Wunderground v.1.15,2013-03-16 13:17:00,
2013-03-16 07:20:00,37.5,30.3,29.84,NE,46,0.0,0.0,75,0.00,,,0.00,Wunderground v.1.15,2013-03-16 13:20:00,
2013-03-16 07:21:00,37.5,30.3,29.84,NE,45,0.0,0.0,75,0.00,,,0.00,Wunderground v.1.15,2013-03-16 13:21:00,
2013-03-16 07:22:00,37.6,30.4,29.84,NE,46,0.0,0.0,75,0.00,,,0.00,Wunderground v.1.15,2013-03-16 13:22:00,
2013-03-16 07:25:00,37.7,30.5,29.84,NE,44,0.0,0.0,75,0.00,,,0.00,Wunderground v.1.15,2013-03-16 13:25:00,
2013-03-16 07:26:00,37.7,30.5,29.84,NE,44,0.0,0.0,75,0.00,,,0.00,Wunderground v.1.15,2013-03-16 13:26:00,
2013-03-16 07:27:00,37.7,30.5,29.84,NE,44,0.0,0.0,75,0.00,,,0.00,Wunderground v.1.15,2013-03-16 13:27:00,
2013-03-16 07:30:00,37.9,30.7,29.84,WNW,296,0.0,0.0,75,0.00,,,0.00,Wunderground v.1.15,2013-03-16 13:30:00,
2013-03-16 07:31:00,38.0,30.8,29.84,WNW,297,0.0,0.0,75,0.00,,,0.00,Wunderground v.1.15,2013-03-16 13:31:00,
2013-03-16 07:32:00,38.0,30.4,29.84,WNW,296,0.0,0.0,74,0.00,,,0.00,Wunderground v.1.15,2013-03-16 13:32:00,
2013-03-16 07:36:00,38.0,30.4,29.84,WNW,296,0.0,0.0,74,0.00,,,0.00,Wunderground v.1.15,2013-03-16 13:36:00,
2013-03-16 07:37:00,38.0,30.4,29.84,WNW,296,0.0,0.0,74,0.00,,,0.00,Wunderground v.1.15,2013-03-16 13:37:00,
2013-03-16 07:42:00,38.1,30.5,29.84,WNW,296,0.0,0.0,74,0.00,,,0.00,Wunderground v.1.15,2013-03-16 13:42:00,
2013-03-16 07:47:00,38.3,30.7,29.85,SW,225,0.0,0.0,74,0.00,,,0.00,Wunderground v.1.15,2013-03-16 13:47:00,
2013-03-16 07:48:00,38.3,30.7,29.85,SW,225,0.0,0.0,74,0.00,,,0.00,Wunderground v.1.15,2013-03-16 13:48:00,
2013-03-16 07:52:00,38.5,30.9,29.85,SSW,205,0.0,0.0,74,0.00,,,0.00,Wunderground v.1.15,2013-03-16 13:52:00,
2013-03-16 07:55:00,38.6,30.7,29.85,SSW,203,1.0,1.0,73,0.00,,,0.00,Wunderground v.1.15,2013-03-16 13:55:00,
2013-03-16 07:57:00,38.7,31.1,29.85,West,274,1.0,2.0,74,0.00,,,0.00,Wunderground v.1.15,2013-03-16 13:57:00,
2013-03-16 07:58:00,38.7,31.1,29.85,West,281,1.0,2.0,74,0.00,,,0.00,Wunderground v.1.15,2013-03-16 13:58:00,
2013-03-16 08:00:00,38.9,30.6,29.85,WSW,257,0.0,0.0,72,0.00,,,0.00,Wunderground v.1.15,2013-03-16 14:00:00,
2013-03-16 08:02:00,39.1,30.8,29.85,WSW,256,0.0,0.0,72,0.00,,,0.00,Wunderground v.1.15,2013-03-16 14:02:00,
2013-03-16 08:03:00,39.1,30.8,29.85,WSW,256,0.0,0.0,72,0.00,,,0.00,Wunderground v.1.15,2013-03-16 14:03:00,
2013-03-16 08:06:00,39.2,30.9,29.85,WSW,256,0.0,0.0,72,0.00,,,0.00,Wunderground v.1.15,2013-03-16 14:06:00,
2013-03-16 08:09:00,39.3,31.0,29.85,WSW,256,0.0,0.0,72,0.00,,,0.00,Wunderground v.1.15,2013-03-16 14:09:00,
2013-03-16 08:10:00,39.4,31.1,29.85,WSW,257,0.0,0.0,72,0.00,,,0.00,Wunderground v.1.15,2013-03-16 14:10:00,
2013-03-16 08:11:00,39.4,31.1,29.85,WSW,256,0.0,0.0,72,0.00,,,0.00,Wunderground v.1.15,2013-03-16 14:11:00,
2013-03-16 08:14:00,39.6,31.0,29.85,WSW,256,0.0,0.0,71,0.00,,,0.00,Wunderground v.1.15,2013-03-16 14:14:00,
2013-03-16 08:18:00,39.8,31.2,29.85,WSW,256,0.0,0.0,71,0.00,,,0.00,Wunderground v.1.15,2013-03-16 14:18:00,
2013-03-16 08:20:00,39.9,31.3,29.85,WSW,256,0.0,0.0,71,0.00,,,0.00,Wunderground v.1.15,2013-03-16 14:20:00,
2013-03-16 08:24:00,40.1,30.7,29.86,WSW,256,0.0,0.0,69,0.00,,,0.00,Wunderground v.1.15,2013-03-16 14:24:00,
2013-03-16 08:25:00,40.2,30.8,29.86,WSW,256,0.0,0.0,69,0.00,,,0.00,Wunderground v.1.15,2013-03-16 14:25:00,
2013-03-16 08:29:00,40.5,30.8,29.86,WSW,256,0.0,0.0,68,0.00,,,0.00,Wunderground v.1.15,2013-03-16 14:29:00,
2013-03-16 08:30:00,40.5,31.1,29.86,WSW,256,0.0,0.0,69,0.00,,,0.00,Wunderground v.1.15,2013-03-16 14:30:00,
2013-03-16 08:34:00,40.8,31.4,29.86,WNW,302,0.0,1.0,69,0.00,,,0.00,Wunderground v.1.15,2013-03-16 14:34:00,
2013-03-16 08:35:00,40.8,31.4,29.86,WNW,302,0.0,1.0,69,0.00,,,0.00,Wunderground v.1.15,2013-03-16 14:35:00,
2013-03-16 08:41:00,41.0,30.9,29.86,East,89,0.0,2.0,67,0.00,,,0.00,Wunderground v.1.15,2013-03-16 14:41:00,
2013-03-16 08:42:00,41.1,31.0,29.86,East,89,0.0,2.0,67,0.00,,,0.00,Wunderground v.1.15,2013-03-16 14:42:00,
2013-03-16 08:46:00,41.2,31.4,29.86,East,89,0.0,2.0,68,0.00,,,0.00,Wunderground v.1.15,2013-03-16 14:46:00,
2013-03-16 08:47:00,41.2,31.4,29.86,NNE,30,2.0,2.0,68,0.00,,,0.00,Wunderground v.1.15,2013-03-16 14:47:00,
2013-03-16 08:51:00,41.3,31.2,29.86,NNE,30,1.0,2.0,67,0.00,,,0.00,Wunderground v.1.15,2013-03-16 14:51:00,
2013-03-16 08:52:00,41.3,31.2,29.86,NNE,30,1.0,2.0,67,0.00,,,0.00,Wunderground v.1.15,2013-03-16 14:52:00,
2013-03-16 08:53:00,41.4,30.9,29.86,NNE,30,1.0,2.0,66,0.00,,,0.00,Wunderground v.1.15,2013-03-16 14:53:00,
2013-03-16 08:56:00,41.5,31.0,29.86,NNE,27,2.0,2.0,66,0.00,,,0.00,Wunderground v.1.15,2013-03-16 14:56:00,
2013-03-16 08:57:00,41.5,31.0,29.86,NNE,26,1.0,2.0,66,0.00,,,0.00,Wunderground v.1.15,2013-03-16 14:57:00,
2013-03-16 08:58:00,41.5,31.0,29.87,NE,36,4.0,5.0,66,0.00,,,0.00,Wunderground v.1.15,2013-03-16 14:58:00,
2013-03-16 09:01:00,41.6,31.1,29.86,NE,40,4.0,4.0,66,0.00,,,0.00,Wunderground v.1.15,2013-03-16 15:01:00,
2013-03-16 09:02:00,41.6,31.1,29.87,NE,40,2.0,4.0,66,0.00,,,0.00,Wunderground v.1.15,2013-03-16 15:02:00,
2013-03-16 09:03:00,41.6,30.7,29.87,NE,40,0.0,4.0,65,0.00,,,0.00,Wunderground v.1.15,2013-03-16 15:03:00,
2013-03-16 09:07:00,41.7,30.8,29.87,ENE,74,3.0,4.0,65,0.00,,,0.00,Wunderground v.1.15,2013-03-16 15:07:00,
2013-03-16 09:08:00,41.7,30.8,29.87,ENE,72,1.0,4.0,65,0.00,,,0.00,Wunderground v.1.15,2013-03-16 15:08:00,
2013-03-16 09:12:00,41.9,31.4,29.87,ENE,59,3.0,4.0,66,0.00,,,0.00,Wunderground v.1.15,2013-03-16 15:12:00,
2013-03-16 09:14:00,41.9,31.0,29.87,ENE,65,1.0,4.0,65,0.00,,,0.00,Wunderground v.1.15,2013-03-16 15:14:00,
2013-03-16 09:17:00,41.9,31.0,29.87,ENE,74,1.0,4.0,65,0.00,,,0.00,Wunderground v.1.15,2013-03-16 15:17:00,
2013-03-16 09:18:00,41.9,31.0,29.87,ESE,107,2.0,4.0,65,0.00,,,0.00,Wunderground v.1.15,2013-03-16 15:18:00,
2013-03-16 09:19:00,41.9,31.0,29.87,ESE,108,1.0,4.0,65,0.00,,,0.00,Wunderground v.1.15,2013-03-16 15:19:00,
2013-03-16 09:23:00,42.1,30.8,29.87,SE,138,2.0,4.0,64,0.00,,,0.00,Wunderground v.1.15,2013-03-16 15:23:00,
2013-03-16 09:24:00,42.2,30.9,29.86,SE,138,0.0,4.0,64,0.00,,,0.00,Wunderground v.1.15,2013-03-16 15:24:00,
2013-03-16 09:28:00,42.4,31.5,29.87,ESE,111,3.0,6.0,65,0.00,,,0.00,Wunderground v.1.15,2013-03-16 15:28:00,
2013-03-16 09:29:00,42.4,31.5,29.87,East,98,1.0,6.0,65,0.00,,,0.00,Wunderground v.1.15,2013-03-16 15:29:00,
2013-03-16 09:33:00,42.5,31.2,29.87,ENE,78,3.0,3.0,64,0.00,,,0.00,Wunderground v.1.15,2013-03-16 15:33:00,
2013-03-16 09:34:00,42.4,30.7,29.87,SE,124,2.0,3.0,63,0.00,,,0.00,Wunderground v.1.15,2013-03-16 15:34:00,
2013-03-16 09:38:00,42.5,30.4,29.87,SE,124,3.0,5.0,62,0.00,,,0.00,Wunderground v.1.15,2013-03-16 15:38:00,
2013-03-16 09:39:00,42.5,30.8,29.87,South,174,2.0,5.0,63,0.00,,,0.00,Wunderground v.1.15,2013-03-16 15:39:00,
2013-03-16 09:43:00,42.7,31.0,29.86,ESE,105,1.0,2.0,63,0.00,,,0.00,Wunderground v.1.15,2013-03-16 15:43:00,
2013-03-16 09:44:00,42.7,31.0,29.86,ESE,103,1.0,2.0,63,0.00,,,0.00,Wunderground v.1.15,2013-03-16 15:44:00,
2013-03-16 09:48:00,42.9,30.4,29.86,ENE,58,2.0,4.0,61,0.00,,,0.00,Wunderground v.1.15,2013-03-16 15:48:00,
2013-03-16 09:49:00,42.9,30.8,29.86,NE,51,2.0,4.0,62,0.00,,,0.00,Wunderground v.1.15,2013-03-16 15:49:00,
2013-03-16 09:50:00,42.9,30.8,29.86,ESE,111,4.0,4.0,62,0.00,,,0.00,Wunderground v.1.15,2013-03-16 15:50:00,
2013-03-16 09:54:00,43.0,30.9,29.87,NE,44,2.0,6.0,62,0.00,,,0.00,Wunderground v.1.15,2013-03-16 15:54:00,
2013-03-16 09:55:00,43.0,30.5,29.87,East,99,3.0,6.0,61,0.00,,,0.00,Wunderground v.1.15,2013-03-16 15:55:00,
2013-03-16 09:59:00,42.8,30.3,29.86,North,5,2.0,6.0,61,0.00,,,0.00,Wunderground v.1.15,2013-03-16 15:59:00,
2013-03-16 10:00:00,42.9,30.4,29.87,North,360,2.0,3.0,61,0.00,,,0.00,Wunderground v.1.15,2013-03-16 16:00:00,
2013-03-16 10:04:00,43.2,31.1,29.86,East,81,5.0,5.0,62,0.00,,,0.00,Wunderground v.1.15,2013-03-16 16:04:00,
2013-03-16 10:06:00,43.2,30.6,29.86,East,85,5.0,7.0,61,0.00,,,0.00,Wunderground v.1.15,2013-03-16 16:06:00,
2013-03-16 10:07:00,43.2,30.6,29.86,East,83,3.0,7.0,61,0.00,,,0.00,Wunderground v.1.15,2013-03-16 16:07:00,
2013-03-16 10:09:00,43.2,31.1,29.86,ESE,120,5.0,8.0,62,0.00,,,0.00,Wunderground v.1.15,2013-03-16 16:09:00,
2013-03-16 10:12:00,43.2,31.1,29.86,SE,133,1.0,5.0,62,0.00,,,0.00,Wunderground v.1.15,2013-03-16 16:12:00,
2013-03-16 10:17:00,43.6,31.0,29.86,SSE,155,1.0,5.0,61,0.00,,,0.00,Wunderground v.1.15,2013-03-16 16:17:00,
2013-03-16 10:22:00,43.9,30.5,29.86,SW,226,4.0,5.0,59,0.00,,,0.00,Wunderground v.1.15,2013-03-16 16:22:00,
2013-03-16 10:23:00,43.9,30.9,29.86,SSW,201,4.0,6.0,60,0.00,,,0.00,Wunderground v.1.15,2013-03-16 16:23:00,
2013-03-16 10:28:00,44.0,30.6,29.86,NE,37,5.0,8.0,59,0.00,,,0.00,Wunderground v.1.15,2013-03-16 16:28:00,
2013-03-16 10:33:00,43.5,30.9,29.86,ESE,109,1.0,6.0,61,0.00,,,0.00,Wunderground v.1.15,2013-03-16 16:33:00,
2013-03-16 10:34:00,43.5,30.9,29.86,South,183,2.0,6.0,61,0.00,,,0.00,Wunderground v.1.15,2013-03-16 16:34:00,
2013-03-16 10:38:00,43.7,30.7,29.85,ESE,113,2.0,6.0,60,0.00,,,0.00,Wunderground v.1.15,2013-03-16 16:38:00,
2013-03-16 10:39:00,43.8,30.4,29.86,SE,131,3.0,6.0,59,0.00,,,0.00,Wunderground v.1.15,2013-03-16 16:39:00,
2013-03-16 10:43:00,43.7,30.3,29.85,East,94,0.0,4.0,59,0.00,,,0.00,Wunderground v.1.15,2013-03-16 16:43:00,
2013-03-16 10:45:00,43.7,30.3,29.85,SE,124,3.0,4.0,59,0.00,,,0.00,Wunderground v.1.15,2013-03-16 16:45:00,
2013-03-16 10:48:00,43.8,30.4,29.85,East,86,5.0,5.0,59,0.00,,,0.00,Wunderground v.1.15,2013-03-16 16:48:00,
2013-03-16 10:49:00,43.8,30.0,29.85,ENE,71,3.0,5.0,58,0.00,,,0.00,Wunderground v.1.15,2013-03-16 16:49:00,
2013-03-16 10:50:00,43.7,30.3,29.85,East,79,3.0,3.0,59,0.00,,,0.00,Wunderground v.1.15,2013-03-16 16:50:00,
2013-03-16 10:53:00,43.6,30.2,29.85,South,187,1.0,8.0,59,0.00,,,0.00,Wunderground v.1.15,2013-03-16 16:53:00,
2013-03-16 10:54:00,43.7,30.7,29.85,SE,146,1.0,8.0,60,0.00,,,0.00,Wunderground v.1.15,2013-03-16 16:54:00,
2013-03-16 10:55:00,43.8,30.4,29.85,SE,127,4.0,8.0,59,0.00,,,0.00,Wunderground v.1.15,2013-03-16 16:55:00,
2013-03-16 10:58:00,43.8,30.0,29.85,ESE,107,2.0,8.0,58,0.00,,,0.00,Wunderground v.1.15,2013-03-16 16:58:00,
2013-03-16 10:59:00,43.7,29.9,29.85,SSE,161,4.0,8.0,58,0.00,,,0.00,Wunderground v.1.15,2013-03-16 16:59:00,
2013-03-16 11:01:00,43.7,30.3,29.85,SE,132,2.0,3.0,59,0.00,,,0.00,Wunderground v.1.15,2013-03-16 17:01:00,
2013-03-16 11:03:00,43.8,30.4,29.85,ESE,102,2.0,3.0,59,0.00,,,0.00,Wunderground v.1.15,2013-03-16 17:03:00,
2013-03-16 11:04:00,43.9,30.5,29.85,SE,124,1.0,3.0,59,0.00,,,0.00,Wunderground v.1.15,2013-03-16 17:04:00,
2013-03-16 11:06:00,44.1,31.1,29.85,SE,127,3.0,3.0,60,0.00,,,0.00,Wunderground v.1.15,2013-03-16 17:06:00,
2013-03-16 11:07:00,44.1,30.7,29.85,ESE,115,1.0,3.0,59,0.00,,,0.00,Wunderground v.1.15,2013-03-16 17:07:00,
2013-03-16 11:08:00,44.3,30.9,29.85,SE,135,3.0,3.0,59,0.00,,,0.00,Wunderground v.1.15,2013-03-16 17:08:00,
2013-03-16 11:09:00,44.3,30.9,29.85,ENE,74,4.0,9.0,59,0.00,,,0.00,Wunderground v.1.15,2013-03-16 17:09:00,
2013-03-16 11:12:00,44.3,30.9,29.85,ESE,102,3.0,6.0,59,0.00,,,0.00,Wunderground v.1.15,2013-03-16 17:12:00,
2013-03-16 11:13:00,44.1,30.7,29.85,SE,136,4.0,6.0,59,0.00,,,0.00,Wunderground v.1.15,2013-03-16 17:13:00,
2013-03-16 11:14:00,44.1,30.3,29.85,SE,131,3.0,6.0,58,0.00,,,0.00,Wunderground v.1.15,2013-03-16 17:14:00,
2013-03-16 11:17:00,44.0,30.6,29.85,ESE,113,0.0,6.0,59,0.00,,,0.00,Wunderground v.1.15,2013-03-16 17:17:00,
2013-03-16 11:18:00,44.0,30.6,29.85,East,99,3.0,6.0,59,0.00,,,0.00,Wunderground v.1.15,2013-03-16 17:18:00,
2013-03-16 11:19:00,44.1,30.7,29.84,East,101,5.0,6.0,59,0.00,,,0.00,Wunderground v.1.15,2013-03-16 17:19:00,
2013-03-16 11:22:00,44.2,31.2,29.84,East,99,5.0,5.0,60,0.00,,,0.00,Wunderground v.1.15,2013-03-16 17:22:00,
2013-03-16 11:23:00,44.2,30.8,29.84,ESE,104,4.0,5.0,59,0.00,,,0.00,Wunderground v.1.15,2013-03-16 17:23:00,
2013-03-16 11:24:00,44.3,30.9,29.84,ESE,120,2.0,5.0,59,0.00,,,0.00,Wunderground v.1.15,2013-03-16 17:24:00,
2013-03-16 11:27:00,44.5,31.1,29.84,ESE,120,1.0,5.0,59,0.00,,,0.00,Wunderground v.1.15,2013-03-16 17:27:00,
2013-03-16 11:28:00,44.7,31.2,29.84,ENE,77,4.0,6.0,59,0.00,,,0.00,Wunderground v.1.15,2013-03-16 17:28:00,
2013-03-16 11:30:00,44.7,30.8,29.84,ENE,63,3.0,3.0,58,0.00,,,0.00,Wunderground v.1.15,2013-03-16 17:30:00,
2013-03-16 11:32:00,44.7,31.2,29.84,SE,132,6.0,6.0,59,0.00,,,0.00,Wunderground v.1.15,2013-03-16 17:32:00,
2013-03-16 11:33:00,44.8,30.9,29.84,East,91,3.0,6.0,58,0.00,,,0.00,Wunderground v.1.15,2013-03-16 17:33:00,
2013-03-16 11:37:00,44.9,31.4,29.84,East,96,4.0,6.0,59,0.00,,,0.00,Wunderground v.1.15,2013-03-16 17:37:00,
2013-03-16 11:38:00,45.0,31.1,29.83,East,86,3.0,6.0,58,0.00,,,0.00,Wunderground v.1.15,2013-03-16 17:38:00,
2013-03-16 11:40:00,45.1,31.2,29.83,East,86,6.0,6.0,58,0.00,,,0.00,Wunderground v.1.15,2013-03-16 17:40:00,
2013-03-16 11:42:00,45.1,30.8,29.83,ENE,60,4.0,8.0,57,0.00,,,0.00,Wunderground v.1.15,2013-03-16 17:42:00,
2013-03-16 11:43:00,45.1,31.2,29.83,ENE,74,4.0,8.0,58,0.00,,,0.00,Wunderground v.1.15,2013-03-16 17:43:00,
2013-03-16 11:45:00,45.2,30.9,29.83,SE,127,1.0,8.0,57,0.00,,,0.00,Wunderground v.1.15,2013-03-16 17:45:00,
2013-03-16 11:48:00,45.6,31.2,29.83,East,91,2.0,8.0,57,0.00,,,0.00,Wunderground v.1.15,2013-03-16 17:48:00,
2013-03-16 11:49:00,45.7,30.9,29.83,ENE,68,3.0,8.0,56,0.00,,,0.00,Wunderground v.1.15,2013-03-16 17:49:00,
2013-03-16 11:50:00,45.9,31.5,29.83,ESE,115,1.0,3.0,57,0.00,,,0.00,Wunderground v.1.15,2013-03-16 17:50:00,
2013-03-16 11:53:00,46.3,31.4,29.82,East,82,2.0,3.0,56,0.00,,,0.00,Wunderground v.1.15,2013-03-16 17:53:00,
2013-03-16 11:54:00,46.4,31.1,29.82,East,99,4.0,8.0,55,0.00,,,0.00,Wunderground v.1.15,2013-03-16 17:54:00,
2013-03-16 11:55:00,46.4,31.1,29.82,ESE,105,6.0,8.0,55,0.00,,,0.00,Wunderground v.1.15,2013-03-16 17:55:00,
2013-03-16 11:58:00,46.2,31.4,29.82,East,101,5.0,8.0,56,0.00,,,0.00,Wunderground v.1.15,2013-03-16 17:58:00,
2013-03-16 12:00:00,46.0,31.2,29.82,ESE,110,6.0,6.0,56,0.00,,,0.00,Wunderground v.1.15,2013-03-16 18:00:00,
2013-03-16 12:03:00,45.9,31.1,29.81,East,88,0.0,6.0,56,0.00,,,0.00,Wunderground v.1.15,2013-03-16 18:03:00,
2013-03-16 12:05:00,46.2,31.4,29.82,East,81,5.0,6.0,56,0.00,,,0.00,Wunderground v.1.15,2013-03-16 18:05:00,
2013-03-16 12:08:00,46.4,31.1,29.82,East,90,5.0,6.0,55,0.00,,,0.00,Wunderground v.1.15,2013-03-16 18:08:00,
2013-03-16 12:11:00,46.4,31.5,29.82,ENE,65,4.0,5.0,56,0.00,,,0.00,Wunderground v.1.15,2013-03-16 18:11:00,
2013-03-16 12:13:00,46.5,31.2,29.82,SE,129,2.0,5.0,55,0.00,,,0.00,Wunderground v.1.15,2013-03-16 18:13:00,
2013-03-16 12:16:00,47.2,32.3,29.81,SSE,161,1.0,5.0,56,0.00,,,0.00,Wunderground v.1.15,2013-03-16 18:16:00,
2013-03-16 12:17:00,47.2,32.3,29.81,NE,44,3.0,5.0,56,0.00,,,0.00,Wunderground v.1.15,2013-03-16 18:17:00,
2013-03-16 12:18:00,47.3,31.0,29.81,NE,37,4.0,8.0,53,0.00,,,0.00,Wunderground v.1.15,2013-03-16 18:18:00,
2013-03-16 12:22:00,46.7,30.9,29.81,NNW,348,2.0,5.0,54,0.00,,,0.00,Wunderground v.1.15,2013-03-16 18:22:00,
2013-03-16 12:23:00,46.7,31.4,29.81,NW,314,6.0,6.0,55,0.00,,,0.00,Wunderground v.1.15,2013-03-16 18:23:00,
2013-03-16 12:27:00,47.1,31.7,29.80,West,281,2.0,9.0,55,0.00,,,0.00,Wunderground v.1.15,2013-03-16 18:27:00,
2013-03-16 12:28:00,47.2,31.4,29.80,West,281,0.0,9.0,54,0.00,,,0.00,Wunderground v.1.15,2013-03-16 18:28:00,
2013-03-16 12:29:00,47.4,31.6,29.80,WSW,256,0.0,9.0,54,0.00,,,0.00,Wunderground v.1.15,2013-03-16 18:29:00,
2013-03-16 12:30:00,47.7,31.9,29.80,SSW,194,2.0,3.0,54,0.00,,,0.00,Wunderground v.1.15,2013-03-16 18:30:00,
2013-03-16 12:32:00,48.1,31.8,29.80,South,187,3.0,3.0,53,0.00,,,0.00,Wunderground v.1.15,2013-03-16 18:32:00,
2013-03-16 12:33:00,48.3,32.4,29.80,SW,229,4.0,4.0,54,0.00,,,0.00,Wunderground v.1.15,2013-03-16 18:33:00,
2013-03-16 12:34:00,48.4,32.5,29.80,SSE,167,3.0,4.0,54,0.00,,,0.00,Wunderground v.1.15,2013-03-16 18:34:00,
2013-03-16 12:36:00,48.7,31.8,29.80,ESE,120,3.0,7.0,52,0.00,,,0.00,Wunderground v.1.15,2013-03-16 18:36:00,
2013-03-16 12:38:00,48.6,31.8,29.80,SE,133,6.0,8.0,52,0.00,,,0.00,Wunderground v.1.15,2013-03-16 18:38:00,
2013-03-16 12:39:00,48.3,31.5,29.80,East,97,6.0,8.0,52,0.00,,,0.00,Wunderground v.1.15,2013-03-16 18:39:00,
2013-03-16 12:43:00,47.4,31.1,29.80,ENE,77,3.0,6.0,53,0.00,,,0.00,Wunderground v.1.15,2013-03-16 18:43:00,
2013-03-16 12:44:00,47.2,30.9,29.80,East,84,2.0,6.0,53,0.00,,,0.00,Wunderground v.1.15,2013-03-16 18:44:00,
2013-03-16 12:48:00,46.8,31.0,29.80,East,88,1.0,7.0,54,0.00,,,0.00,Wunderground v.1.15,2013-03-16 18:48:00,
2013-03-16 12:49:00,46.7,31.4,29.80,SE,141,4.0,7.0,55,0.00,,,0.00,Wunderground v.1.15,2013-03-16 18:49:00,
2013-03-16 12:53:00,47.1,31.7,29.79,East,101,3.0,5.0,55,0.00,,,0.00,Wunderground v.1.15,2013-03-16 18:53:00,
2013-03-16 12:54:00,47.2,31.8,29.79,ESE,102,2.0,5.0,55,0.00,,,0.00,Wunderground v.1.15,2013-03-16 18:54:00,
2013-03-16 12:59:00,47.4,32.0,29.79,East,97,1.0,5.0,55,0.00,,,0.00,Wunderground v.1.15,2013-03-16 18:59:00,
2013-03-16 13:00:00,47.5,31.7,29.79,East,98,0.0,2.0,54,0.00,,,0.00,Wunderground v.1.15,2013-03-16 19:00:00,
2013-03-16 13:04:00,48.1,31.8,29.78,ESE,114,4.0,6.0,53,0.00,,,0.00,Wunderground v.1.15,2013-03-16 19:04:00,
2013-03-16 13:05:00,48.0,31.7,29.78,East,86,6.0,6.0,53,0.00,,,0.00,Wunderground v.1.15,2013-03-16 19:05:00,
2013-03-16 13:10:00,47.8,32.4,29.78,SE,144,6.0,6.0,55,0.00,,,0.00,Wunderground v.1.15,2013-03-16 19:10:00,
2013-03-16 13:16:00,47.9,32.0,29.77,SW,225,4.0,7.0,54,0.00,,,0.00,Wunderground v.1.15,2013-03-16 19:16:00,
2013-03-16 13:17:00,48.0,32.1,29.77,SW,232,3.0,7.0,54,0.00,,,0.00,Wunderground v.1.15,2013-03-16 19:17:00,
2013-03-16 13:22:00,48.7,32.3,29.77,SSE,157,1.0,8.0,53,0.00,,,0.00,Wunderground v.1.15,2013-03-16 19:22:00,
2013-03-16 13:23:00,48.7,32.3,29.77,SW,218,0.0,8.0,53,0.00,,,0.00,Wunderground v.1.15,2013-03-16 19:23:00,
2013-03-16 13:27:00,49.0,32.6,29.76,ENE,63,3.0,8.0,53,0.00,,,0.00,Wunderground v.1.15,2013-03-16 19:27:00,
2013-03-16 13:28:00,49.1,32.7,29.76,ESE,117,1.0,8.0,53,0.00,,,0.00,Wunderground v.1.15,2013-03-16 19:28:00,
2013-03-16 13:29:00,49.1,33.6,29.76,SSW,205,2.0,8.0,55,0.00,,,0.00,Wunderground v.1.15,2013-03-16 19:29:00,
2013-03-16 13:33:00,49.2,32.8,29.76,SSE,165,10.0,10.0,53,0.00,,,0.00,Wunderground v.1.15,2013-03-16 19:33:00,
2013-03-16 13:34:00,49.2,32.8,29.76,SSE,163,6.0,10.0,53,0.00,,,0.00,Wunderground v.1.15,2013-03-16 19:34:00,
2013-03-16 13:38:00,48.8,31.9,29.76,SSE,165,6.0,10.0,52,0.00,,,0.00,Wunderground v.1.15,2013-03-16 19:38:00,
2013-03-16 13:39:00,48.8,31.9,29.76,SE,143,7.0,10.0,52,0.00,,,0.00,Wunderground v.1.15,2013-03-16 19:39:00,
2013-03-16 13:43:00,49.0,32.6,29.75,SSW,211,2.0,6.0,53,0.00,,,0.00,Wunderground v.1.15,2013-03-16 19:43:00,
2013-03-16 13:44:00,49.1,32.7,29.75,SSE,163,5.0,6.0,53,0.00,,,0.00,Wunderground v.1.15,2013-03-16 19:44:00,
2013-03-16 13:49:00,49.7,32.8,29.75,South,181,5.0,7.0,52,0.00,,,0.00,Wunderground v.1.15,2013-03-16 19:49:00,
2013-03-16 13:54:00,49.6,32.7,29.75,ESE,107,6.0,9.0,52,0.00,,,0.00,Wunderground v.1.15,2013-03-16 19:54:00,
2013-03-16 13:57:00,49.3,32.4,29.75,ESE,120,4.0,9.0,52,0.00,,,0.00,Wunderground v.1.15,2013-03-16 19:57:00,
2013-03-16 13:59:00,48.9,32.0,29.75,ESE,111,3.0,9.0,52,0.00,,,0.00,Wunderground v.1.15,2013-03-16 19:59:00,
2013-03-16 14:00:00,48.9,32.5,29.75,ESE,102,6.0,6.0,53,0.00,,,0.00,Wunderground v.1.15,2013-03-16 20:00:00,
2013-03-16 14:02:00,48.6,32.2,29.74,NE,54,4.0,7.0,53,0.00,,,0.00,Wunderground v.1.15,2013-03-16 20:02:00,
2013-03-16 14:04:00,48.6,32.2,29.74,ESE,108,3.0,7.0,53,0.00,,,0.00,Wunderground v.1.15,2013-03-16 20:04:00,
2013-03-16 14:05:00,48.6,33.1,29.74,South,179,4.0,7.0,55,0.00,,,0.00,Wunderground v.1.15,2013-03-16 20:05:00,
2013-03-16 14:08:00,49.0,33.1,29.74,ESE,115,1.0,7.0,54,0.00,,,0.00,Wunderground v.1.15,2013-03-16 20:08:00,
2013-03-16 14:09:00,49.0,32.6,29.74,ESE,111,4.0,7.0,53,0.00,,,0.00,Wunderground v.1.15,2013-03-16 20:09:00,
2013-03-16 14:10:00,49.0,32.6,29.74,ENE,75,5.0,5.0,53,0.00,,,0.00,Wunderground v.1.15,2013-03-16 20:10:00,
2013-03-16 14:13:00,49.2,32.8,29.73,South,190,4.0,8.0,53,0.00,,,0.00,Wunderground v.1.15,2013-03-16 20:13:00,
2013-03-16 14:14:00,49.3,32.9,29.73,WSW,255,1.0,8.0,53,0.00,,,0.00,Wunderground v.1.15,2013-03-16 20:14:00,
2013-03-16 14:15:00,49.4,33.0,29.73,SE,129,2.0,8.0,53,0.00,,,0.00,Wunderground v.1.15,2013-03-16 20:15:00,
2013-03-16 14:18:00,49.8,32.9,29.73,SW,214,3.0,8.0,52,0.00,,,0.00,Wunderground v.1.15,2013-03-16 20:18:00,
2013-03-16 14:19:00,49.9,33.0,29.73,East,79,3.0,8.0,52,0.00,,,0.00,Wunderground v.1.15,2013-03-16 20:19:00,
2013-03-16 14:20:00,49.9,33.0,29.73,SSE,160,3.0,4.0,52,0.00,,,0.00,Wunderground v.1.15,2013-03-16 20:20:00,
2013-03-16 14:23:00,49.7,32.3,29.73,SE,129,4.0,9.0,51,0.00,,,0.00,Wunderground v.1.15,2013-03-16 20:23:00,
2013-03-16 14:25:00,49.5,32.6,29.73,SE,141,1.0,9.0,52,0.00,,,0.00,Wunderground v.1.15,2013-03-16 20:25:00,
2013-03-16 14:28:00,49.6,32.7,29.72,ESE,102,0.0,9.0,52,0.00,,,0.00,Wunderground v.1.15,2013-03-16 20:28:00,
2013-03-16 14:30:00,49.9,33.0,29.72,SE,134,4.0,4.0,52,0.00,,,0.00,Wunderground v.1.15,2013-03-16 20:30:00,
2013-03-16 14:31:00,50.0,32.6,29.72,SE,139,3.0,6.0,51,0.00,,,0.00,Wunderground v.1.15,2013-03-16 20:31:00,
2013-03-16 14:34:00,50.2,32.8,29.72,SSE,167,4.0,7.0,51,0.00,,,0.00,Wunderground v.1.15,2013-03-16 20:34:00,
2013-03-16 14:35:00,50.3,32.8,29.72,WSW,249,0.0,7.0,51,0.00,,,0.00,Wunderground v.1.15,2013-03-16 20:35:00,
2013-03-16 14:37:00,50.5,34.0,29.72,SSW,210,3.0,7.0,53,0.00,,,0.00,Wunderground v.1.15,2013-03-16 20:37:00,
2013-03-16 14:39:00,50.9,33.4,29.72,SW,219,0.0,7.0,51,0.00,,,0.00,Wunderground v.1.15,2013-03-16 20:39:00,
2013-03-16 14:42:00,51.2,32.7,29.71,ENE,75,1.0,3.0,49,0.00,,,0.00,Wunderground v.1.15,2013-03-16 20:42:00,
2013-03-16 14:44:00,51.3,33.3,29.71,SSE,151,6.0,11.0,50,0.00,,,0.00,Wunderground v.1.15,2013-03-16 20:44:00,
2013-03-16 14:47:00,51.6,33.0,29.72,WSW,239,3.0,11.0,49,0.00,,,0.00,Wunderground v.1.15,2013-03-16 20:47:00,
2013-03-16 14:49:00,51.5,32.4,29.72,WNW,285,1.0,11.0,48,0.00,,,0.00,Wunderground v.1.15,2013-03-16 20:49:00,
2013-03-16 14:52:00,51.8,33.2,29.71,South,177,4.0,4.0,49,0.00,,,0.00,Wunderground v.1.15,2013-03-16 20:52:00,
2013-03-16 14:53:00,52.1,33.0,29.71,SE,127,5.0,7.0,48,0.00,,,0.00,Wunderground v.1.15,2013-03-16 20:53:00,
2013-03-16 14:55:00,52.1,33.0,29.71,South,169,0.0,7.0,48,0.00,,,0.00,Wunderground v.1.15,2013-03-16 20:55:00,
2013-03-16 14:57:00,52.3,33.2,29.71,WSW,250,2.0,7.0,48,0.00,,,0.00,Wunderground v.1.15,2013-03-16 20:57:00,
2013-03-16 14:58:00,52.4,32.7,29.72,SSE,167,1.0,7.0,47,0.00,,,0.00,Wunderground v.1.15,2013-03-16 20:58:00,
2013-03-16 15:00:00,52.5,32.8,29.71,SE,135,3.0,3.0,47,0.00,,,0.00,Wunderground v.1.15,2013-03-16 21:00:00,
2013-03-16 15:04:00,52.4,32.7,29.72,WNW,297,1.0,3.0,47,0.00,,,0.00,Wunderground v.1.15,2013-03-16 21:04:00,
2013-03-16 15:05:00,52.4,32.7,29.72,SSE,154,2.0,3.0,47,0.00,,,0.00,Wunderground v.1.15,2013-03-16 21:05:00,
2013-03-16 15:10:00,52.4,32.7,29.72,NNE,23,2.0,2.0,47,0.00,,,0.00,Wunderground v.1.15,2013-03-16 21:10:00,
2013-03-16 15:15:00,51.6,32.5,29.72,SE,135,1.0,8.0,48,0.00,,,0.00,Wunderground v.1.15,2013-03-16 21:15:00,
2013-03-16 15:20:00,51.0,32.5,29.72,East,90,1.0,3.0,49,0.00,,,0.00,Wunderground v.1.15,2013-03-16 21:20:00,
2013-03-16 15:25:00,50.5,32.5,29.72,North,1,2.0,3.0,50,0.00,,,0.00,Wunderground v.1.15,2013-03-16 21:25:00,
2013-03-16 15:26:00,50.5,32.5,29.72,North,359,2.0,3.0,50,0.00,,,0.00,Wunderground v.1.15,2013-03-16 21:26:00,
2013-03-16 15:30:00,50.3,32.4,29.73,NNE,27,2.0,4.0,50,0.00,,,0.00,Wunderground v.1.15,2013-03-16 21:30:00,
2013-03-16 15:31:00,50.3,32.4,29.73,NNE,27,2.0,4.0,50,0.00,,,0.00,Wunderground v.1.15,2013-03-16 21:31:00,
2013-03-16 15:32:00,50.3,32.4,29.73,NNE,27,3.0,4.0,50,0.00,,,0.00,Wunderground v.1.15,2013-03-16 21:32:00,
2013-03-16 15:36:00,50.2,32.8,29.73,NE,49,5.0,8.0,51,0.00,,,0.00,Wunderground v.1.15,2013-03-16 21:36:00,
2013-03-16 15:37:00,50.2,32.3,29.73,NE,39,4.0,8.0,50,0.00,,,0.00,Wunderground v.1.15,2013-03-16 21:37:00,
2013-03-16 15:41:00,50.1,32.7,29.73,East,85,3.0,9.0,51,0.00,,,0.00,Wunderground v.1.15,2013-03-16 21:41:00,
2013-03-16 15:42:00,50.1,32.7,29.73,ESE,105,2.0,9.0,51,0.00,,,0.00,Wunderground v.1.15,2013-03-16 21:42:00,
2013-03-16 15:46:00,50.2,32.8,29.73,NE,50,9.0,10.0,51,0.00,,,0.00,Wunderground v.1.15,2013-03-16 21:46:00,
2013-03-16 15:47:00,50.2,32.8,29.73,NNE,22,11.0,14.0,51,0.00,,,0.00,Wunderground v.1.15,2013-03-16 21:47:00,
2013-03-16 15:48:00,50.3,32.8,29.73,NNE,22,9.0,14.0,51,0.00,,,0.00,Wunderground v.1.15,2013-03-16 21:48:00,
2013-03-16 15:52:00,50.4,32.9,29.73,East,91,4.0,11.0,51,0.00,,,0.00,Wunderground v.1.15,2013-03-16 21:52:00,
2013-03-16 15:53:00,50.4,32.9,29.73,NE,40,8.0,11.0,51,0.00,,,0.00,Wunderground v.1.15,2013-03-16 21:53:00,
2013-03-16 15:57:00,50.4,32.9,29.73,NE,34,12.0,15.0,51,0.00,,,0.00,Wunderground v.1.15,2013-03-16 21:57:00,
2013-03-16 15:58:00,50.4,32.9,29.73,NNE,27,7.0,15.0,51,0.00,,,0.00,Wunderground v.1.15,2013-03-16 21:58:00,
2013-03-16 15:59:00,50.4,32.9,29.73,NE,40,7.0,15.0,51,0.00,,,0.00,Wunderground v.1.15,2013-03-16 21:59:00,
2013-03-16 16:02:00,50.7,33.7,29.73,East,84,8.0,10.0,52,0.00,,,0.00,Wunderground v.1.15,2013-03-16 22:02:00,
2013-03-16 16:03:00,50.8,33.8,29.73,East,79,6.0,10.0,52,0.00,,,0.00,Wunderground v.1.15,2013-03-16 22:03:00,
2013-03-16 16:06:00,51.0,33.0,29.73,ENE,63,8.0,13.0,50,0.00,,,0.00,Wunderground v.1.15,2013-03-16 22:06:00,
2013-03-16 16:07:00,51.0,33.0,29.73,NE,44,10.0,13.0,50,0.00,,,0.00,Wunderground v.1.15,2013-03-16 22:07:00,
2013-03-16 16:09:00,51.0,33.5,29.73,NE,47,5.0,13.0,51,0.00,,,0.00,Wunderground v.1.15,2013-03-16 22:09:00,
2013-03-16 16:12:00,51.3,32.8,29.73,NNE,30,7.0,14.0,49,0.00,,,0.00,Wunderground v.1.15,2013-03-16 22:12:00,
2013-03-16 16:13:00,51.3,33.3,29.73,NNE,22,8.0,14.0,50,0.00,,,0.00,Wunderground v.1.15,2013-03-16 22:13:00,
2013-03-16 16:14:00,51.2,32.7,29.73,ESE,107,4.0,14.0,49,0.00,,,0.00,Wunderground v.1.15,2013-03-16 22:14:00,
2013-03-16 16:15:00,51.2,32.7,29.73,East,86,6.0,14.0,49,0.00,,,0.00,Wunderground v.1.15,2013-03-16 22:15:00,
2013-03-16 16:17:00,51.0,33.0,29.73,East,81,8.0,14.0,50,0.00,,,0.00,Wunderground v.1.15,2013-03-16 22:17:00,
2013-03-16 16:18:00,50.9,32.4,29.73,NE,37,6.0,14.0,49,0.00,,,0.00,Wunderground v.1.15,2013-03-16 22:18:00,
2013-03-16 16:20:00,50.7,32.7,29.74,ENE,69,3.0,9.0,50,0.00,,,0.00,Wunderground v.1.15,2013-03-16 22:20:00,
2013-03-16 16:22:00,50.5,33.0,29.74,NE,39,7.0,10.0,51,0.00,,,0.00,Wunderground v.1.15,2013-03-16 22:22:00,
2013-03-16 16:23:00,50.5,33.0,29.74,East,91,2.0,10.0,51,0.00,,,0.00,Wunderground v.1.15,2013-03-16 22:23:00,
2013-03-16 16:25:00,50.4,32.4,29.73,NE,54,7.0,10.0,50,0.00,,,0.00,Wunderground v.1.15,2013-03-16 22:25:00,
2013-03-16 16:27:00,50.4,32.9,29.73,NNE,12,3.0,10.0,51,0.00,,,0.00,Wunderground v.1.15,2013-03-16 22:27:00,
2013-03-16 16:28:00,50.4,32.9,29.73,NNE,22,6.0,10.0,51,0.00,,,0.00,Wunderground v.1.15,2013-03-16 22:28:00,
2013-03-16 16:30:00,50.3,32.8,29.73,NNE,16,5.0,6.0,51,0.00,,,0.00,Wunderground v.1.15,2013-03-16 22:30:00,
2013-03-16 16:32:00,50.5,33.0,29.73,NNE,30,4.0,11.0,51,0.00,,,0.00,Wunderground v.1.15,2013-03-16 22:32:00,
2013-03-16 16:33:00,50.6,33.1,29.73,NNE,22,3.0,11.0,51,0.00,,,0.00,Wunderground v.1.15,2013-03-16 22:33:00,
2013-03-16 16:35:00,50.8,32.8,29.73,NNE,30,4.0,11.0,50,0.00,,,0.00,Wunderground v.1.15,2013-03-16 22:35:00,
2013-03-16 16:36:00,50.8,32.8,29.73,ENE,74,3.0,11.0,50,0.00,,,0.00,Wunderground v.1.15,2013-03-16 22:36:00,
2013-03-16 16:37:00,50.9,32.9,29.73,ENE,77,3.0,11.0,50,0.00,,,0.00,Wunderground v.1.15,2013-03-16 22:37:00,
2013-03-16 16:38:00,51.0,33.0,29.73,NNE,33,3.0,11.0,50,0.00,,,0.00,Wunderground v.1.15,2013-03-16 22:38:00,
2013-03-16 16:41:00,51.2,33.2,29.73,NNW,345,2.0,5.0,50,0.00,,,0.00,Wunderground v.1.15,2013-03-16 22:41:00,
2013-03-16 16:42:00,51.3,32.8,29.73,NW,323,4.0,5.0,49,0.00,,,0.00,Wunderground v.1.15,2013-03-16 22:42:00,
2013-03-16 16:43:00,51.3,33.3,29.73,NNE,30,3.0,5.0,50,0.00,,,0.00,Wunderground v.1.15,2013-03-16 22:43:00,
2013-03-16 16:46:00,51.4,32.9,29.72,North,351,1.0,5.0,49,0.00,,,0.00,Wunderground v.1.15,2013-03-16 22:46:00,
2013-03-16 16:47:00,51.5,33.0,29.72,NNW,333,3.0,5.0,49,0.00,,,0.00,Wunderground v.1.15,2013-03-16 22:47:00,
2013-03-16 16:48:00,51.6,33.0,29.72,NE,43,3.0,5.0,49,0.00,,,0.00,Wunderground v.1.15,2013-03-16 22:48:00,
2013-03-16 16:51:00,51.6,33.0,29.72,East,82,5.0,8.0,49,0.00,,,0.00,Wunderground v.1.15,2013-03-16 22:51:00,
2013-03-16 16:52:00,51.5,33.0,29.72,ENE,77,4.0,8.0,49,0.00,,,0.00,Wunderground v.1.15,2013-03-16 22:52:00,
2013-03-16 16:53:00,51.4,32.9,29.72,East,89,5.0,8.0,49,0.00,,,0.00,Wunderground v.1.15,2013-03-16 22:53:00,
2013-03-16 16:56:00,51.2,33.2,29.72,East,84,8.0,8.0,50,0.00,,,0.00,Wunderground v.1.15,2013-03-16 22:56:00,
2013-03-16 16:57:00,51.1,33.1,29.72,East,81,3.0,8.0,50,0.00,,,0.00,Wunderground v.1.15,2013-03-16 22:57:00,
2013-03-16 16:58:00,51.0,33.0,29.72,East,98,4.0,8.0,50,0.00,,,0.00,Wunderground v.1.15,2013-03-16 22:58:00,
2013-03-16 17:02:00,50.9,32.9,29.72,ENE,74,3.0,5.0,50,0.00,,,0.00,Wunderground v.1.15,2013-03-16 23:02:00,
2013-03-16 17:03:00,50.8,32.8,29.72,East,86,3.0,5.0,50,0.00,,,0.00,Wunderground v.1.15,2013-03-16 23:03:00,
2013-03-16 17:04:00,50.8,32.8,29.72,SE,133,2.0,5.0,50,0.00,,,0.00,Wunderground v.1.15,2013-03-16 23:04:00,
2013-03-16 17:07:00,50.8,32.8,29.72,East,92,5.0,5.0,50,0.00,,,0.00,Wunderground v.1.15,2013-03-16 23:07:00,
2013-03-16 17:08:00,50.9,32.9,29.72,East,98,3.0,5.0,50,0.00,,,0.00,Wunderground v.1.15,2013-03-16 23:08:00,
2013-03-16 17:10:00,50.9,32.9,29.72,ESE,122,0.0,3.0,50,0.00,,,0.00,Wunderground v.1.15,2013-03-16 23:10:00,
2013-03-16 17:12:00,51.2,33.2,29.72,SE,129,0.0,3.0,50,0.00,,,0.00,Wunderground v.1.15,2013-03-16 23:12:00,
2013-03-16 17:13:00,51.3,33.3,29.72,SSW,201,4.0,4.0,50,0.00,,,0.00,Wunderground v.1.15,2013-03-16 23:13:00,
2013-03-16 17:17:00,51.7,33.1,29.72,East,91,2.0,5.0,49,0.00,,,0.00,Wunderground v.1.15,2013-03-16 23:17:00,
2013-03-16 17:18:00,51.7,33.1,29.72,SE,137,2.0,5.0,49,0.00,,,0.00,Wunderground v.1.15,2013-03-16 23:18:00,
2013-03-16 17:19:00,51.7,33.1,29.72,SE,136,1.0,5.0,49,0.00,,,0.00,Wunderground v.1.15,2013-03-16 23:19:00,
2013-03-16 17:23:00,51.5,33.0,29.72,East,92,2.0,3.0,49,0.00,,,0.00,Wunderground v.1.15,2013-03-16 23:23:00,
2013-03-16 17:24:00,51.5,33.0,29.72,ESE,121,1.0,3.0,49,0.00,,,0.00,Wunderground v.1.15,2013-03-16 23:24:00,
2013-03-16 17:27:00,51.6,33.0,29.72,North,8,1.0,3.0,49,0.00,,,0.00,Wunderground v.1.15,2013-03-16 23:27:00,
2013-03-16 17:28:00,51.5,33.0,29.72,ENE,67,2.0,3.0,49,0.00,,,0.00,Wunderground v.1.15,2013-03-16 23:28:00,
2013-03-16 17:29:00,51.5,33.0,29.72,ENE,77,3.0,3.0,49,0.00,,,0.00,Wunderground v.1.15,2013-03-16 23:29:00,
2013-03-16 17:33:00,51.2,32.7,29.73,ESE,102,1.0,4.0,49,0.00,,,0.00,Wunderground v.1.15,2013-03-16 23:33:00,
2013-03-16 17:34:00,51.2,33.2,29.73,SW,225,4.0,4.0,50,0.00,,,0.00,Wunderground v.1.15,2013-03-16 23:34:00,
2013-03-16 17:38:00,51.2,32.7,29.73,SW,229,5.0,5.0,49,0.00,,,0.00,Wunderground v.1.15,2013-03-16 23:38:00,
2013-03-16 17:39:00,51.3,33.3,29.73,SSW,211,3.0,5.0,50,0.00,,,0.00,Wunderground v.1.15,2013-03-16 23:39:00,
2013-03-16 17:44:00,51.4,32.9,29.73,SW,231,3.0,7.0,49,0.00,,,0.00,Wunderground v.1.15,2013-03-16 23:44:00,
2013-03-16 17:45:00,51.4,32.9,29.73,SW,233,2.0,7.0,49,0.00,,,0.00,Wunderground v.1.15,2013-03-16 23:45:00,
2013-03-16 17:50:00,51.3,33.3,29.73,SW,233,2.0,3.0,50,0.00,,,0.00,Wunderground v.1.15,2013-03-16 23:50:00,
2013-03-16 17:51:00,51.3,33.3,29.73,WSW,246,4.0,4.0,50,0.00,,,0.00,Wunderground v.1.15,2013-03-16 23:51:00,
2013-03-16 17:55:00,51.2,33.2,29.73,SSW,207,2.0,5.0,50,0.00,,,0.00,Wunderground v.1.15,2013-03-16 23:55:00,
2013-03-16 17:56:00,51.1,33.1,29.73,WSW,243,3.0,5.0,50,0.00,,,0.00,Wunderground v.1.15,2013-03-16 23:56:00,
2013-03-16 17:57:00,51.1,33.1,29.73,SSW,211,2.0,5.0,50,0.00,,,0.00,Wunderground v.1.15,2013-03-16 23:57:00,
2013-03-16 18:01:00,50.8,32.8,29.73,West,267,2.0,3.0,50,0.00,,,0.00,Wunderground v.1.15,2013-03-17 00:01:00,
2013-03-16 18:02:00,50.8,32.8,29.73,WSW,248,2.0,3.0,50,0.00,,,0.00,Wunderground v.1.15,2013-03-17 00:02:00,
2013-03-16 18:07:00,50.6,33.1,29.74,SW,223,2.0,3.0,51,0.00,,,0.00,Wunderground v.1.15,2013-03-17 00:07:00,
2013-03-16 18:12:00,50.4,32.9,29.74,SW,236,1.0,2.0,51,0.00,,,0.00,Wunderground v.1.15,2013-03-17 00:12:00,
2013-03-16 18:17:00,50.1,33.1,29.73,WSW,240,2.0,4.0,52,0.00,,,0.00,Wunderground v.1.15,2013-03-17 00:17:00,
2013-03-16 18:22:00,50.0,33.1,29.73,SW,233,4.0,5.0,52,0.00,,,0.00,Wunderground v.1.15,2013-03-17 00:22:00,
2013-03-16 18:23:00,50.0,33.1,29.73,SW,236,4.0,5.0,52,0.00,,,0.00,Wunderground v.1.15,2013-03-17 00:23:00,
2013-03-16 18:27:00,49.9,33.0,29.73,SW,228,4.0,6.0,52,0.00,,,0.00,Wunderground v.1.15,2013-03-17 00:27:00,
2013-03-16 18:28:00,49.9,33.0,29.73,WSW,238,3.0,6.0,52,0.00,,,0.00,Wunderground v.1.15,2013-03-17 00:28:00,
2013-03-16 18:33:00,49.5,33.1,29.72,WSW,240,6.0,6.0,53,0.00,,,0.00,Wunderground v.1.15,2013-03-17 00:33:00,
2013-03-16 18:38:00,49.2,33.3,29.72,SW,232,2.0,7.0,54,0.00,,,0.00,Wunderground v.1.15,2013-03-17 00:38:00,
2013-03-16 18:43:00,49.1,33.2,29.73,West,259,0.0,4.0,54,0.00,,,0.00,Wunderground v.1.15,2013-03-17 00:43:00,
2013-03-16 18:48:00,48.8,33.3,29.73,SE,127,1.0,4.0,55,0.00,,,0.00,Wunderground v.1.15,2013-03-17 00:48:00,
2013-03-16 18:49:00,48.7,33.2,29.73,SE,139,1.0,4.0,55,0.00,,,0.00,Wunderground v.1.15,2013-03-17 00:49:00,
2013-03-16 18:53:00,48.4,33.0,29.73,SSW,203,3.0,4.0,55,0.00,,,0.00,Wunderground v.1.15,2013-03-17 00:53:00,
2013-03-16 18:54:00,48.4,33.4,29.73,SSW,210,3.0,4.0,56,0.00,,,0.00,Wunderground v.1.15,2013-03-17 00:54:00,
2013-03-16 18:59:00,48.2,33.2,29.73,WSW,243,3.0,4.0,56,0.00,,,0.00,Wunderground v.1.15,2013-03-17 00:59:00,
2013-03-16 19:00:00,48.2,32.8,29.73,WSW,238,3.0,4.0,55,0.00,,,0.00,Wunderground v.1.15,2013-03-17 01:00:00,
2013-03-16 19:04:00,48.0,33.5,29.73,WSW,249,6.0,7.0,57,0.00,,,0.00,Wunderground v.1.15,2013-03-17 01:04:00,
2013-03-16 19:06:00,47.9,33.4,29.73,WSW,245,5.0,7.0,57,0.00,,,0.00,Wunderground v.1.15,2013-03-17 01:06:00,
2013-03-16 19:10:00,47.4,33.4,29.73,WSW,250,4.0,5.0,58,0.00,,,0.00,Wunderground v.1.15,2013-03-17 01:10:00,
2013-03-16 19:11:00,47.2,33.6,29.73,West,264,6.0,7.0,59,0.00,,,0.00,Wunderground v.1.15,2013-03-17 01:11:00,
2013-03-16 19:15:00,46.7,33.5,29.73,WSW,240,5.0,7.0,60,0.00,,,0.00,Wunderground v.1.15,2013-03-17 01:15:00,
2013-03-16 19:17:00,46.6,33.4,29.73,WSW,240,2.0,7.0,60,0.00,,,0.00,Wunderground v.1.15,2013-03-17 01:17:00,
2013-03-16 19:20:00,46.7,32.7,29.73,SSW,207,1.0,4.0,58,0.00,,,0.00,Wunderground v.1.15,2013-03-17 01:20:00,
2013-03-16 19:22:00,46.7,33.1,29.73,SSW,193,1.0,4.0,59,0.00,,,0.00,Wunderground v.1.15,2013-03-17 01:22:00,
2013-03-16 19:27:00,45.9,33.6,29.74,SW,218,4.0,6.0,62,0.00,,,0.00,Wunderground v.1.15,2013-03-17 01:27:00,
2013-03-16 19:32:00,45.0,33.5,29.74,SW,224,6.0,6.0,64,0.00,,,0.00,Wunderground v.1.15,2013-03-17 01:32:00,
2013-03-16 19:33:00,44.9,33.5,29.74,SW,224,6.0,6.0,64,0.00,,,0.00,Wunderground v.1.15,2013-03-17 01:33:00,
2013-03-16 19:38:00,44.9,33.5,29.74,SW,231,6.0,7.0,64,0.00,,,0.00,Wunderground v.1.15,2013-03-17 01:38:00,
2013-03-16 19:39:00,45.0,33.5,29.74,SW,236,7.0,7.0,64,0.00,,,0.00,Wunderground v.1.15,2013-03-17 01:39:00,
2013-03-16 19:43:00,45.5,33.6,29.74,SW,233,6.0,8.0,63,0.00,,,0.00,Wunderground v.1.15,2013-03-17 01:43:00,
2013-03-16 19:44:00,45.6,33.7,29.74,WSW,249,6.0,8.0,63,0.00,,,0.00,Wunderground v.1.15,2013-03-17 01:44:00,
2013-03-16 19:49:00,46.0,33.3,29.74,WSW,256,6.0,8.0,61,0.00,,,0.00,Wunderground v.1.15,2013-03-17 01:49:00,
2013-03-16 19:54:00,46.0,33.3,29.74,WSW,248,9.0,9.0,61,0.00,,,0.00,Wunderground v.1.15,2013-03-17 01:54:00,
2013-03-16 19:55:00,45.9,33.6,29.74,WSW,252,8.0,9.0,62,0.00,,,0.00,Wunderground v.1.15,2013-03-17 01:55:00,
2013-03-16 19:59:00,45.7,33.8,29.73,SW,219,8.0,10.0,63,0.00,,,0.00,Wunderground v.1.15,2013-03-17 01:59:00,
2013-03-16 20:00:00,45.6,33.7,29.73,WSW,243,6.0,7.0,63,0.00,,,0.00,Wunderground v.1.15,2013-03-17 02:00:00,
2013-03-16 20:01:00,45.6,33.7,29.73,SW,225,5.0,7.0,63,0.00,,,0.00,Wunderground v.1.15,2013-03-17 02:01:00,
2013-03-16 20:04:00,45.7,33.4,29.73,SW,228,6.0,8.0,62,0.00,,,0.00,Wunderground v.1.15,2013-03-17 02:04:00,
2013-03-16 20:05:00,45.8,33.5,29.73,SW,225,10.0,10.0,62,0.00,,,0.00,Wunderground v.1.15,2013-03-17 02:05:00,
2013-03-16 20:06:00,45.9,33.6,29.73,SW,217,8.0,10.0,62,0.00,,,0.00,Wunderground v.1.15,2013-03-17 02:06:00,
2013-03-16 20:09:00,45.9,33.6,29.74,WSW,241,8.0,10.0,62,0.00,,,0.00,Wunderground v.1.15,2013-03-17 02:09:00,
2013-03-16 20:10:00,45.9,33.6,29.74,SW,233,10.0,10.0,62,0.00,,,0.00,Wunderground v.1.15,2013-03-17 02:10:00,
2013-03-16 20:12:00,46.0,33.3,29.74,SW,233,8.0,10.0,61,0.00,,,0.00,Wunderground v.1.15,2013-03-17 02:12:00,
2013-03-16 20:14:00,46.2,33.1,29.74,SW,226,6.0,10.0,60,0.00,,,0.00,Wunderground v.1.15,2013-03-17 02:14:00,
2013-03-16 20:16:00,46.4,32.8,29.74,SW,231,7.0,10.0,59,0.00,,,0.00,Wunderground v.1.15,2013-03-17 02:16:00,
2013-03-16 20:17:00,46.4,32.8,29.74,WSW,243,6.0,10.0,59,0.00,,,0.00,Wunderground v.1.15,2013-03-17 02:17:00,
2013-03-16 20:19:00,46.6,33.0,29.74,SW,228,9.0,10.0,59,0.00,,,0.00,Wunderground v.1.15,2013-03-17 02:19:00,
2013-03-16 20:22:00,46.9,32.9,29.74,West,281,3.0,9.0,58,0.00,,,0.00,Wunderground v.1.15,2013-03-17 02:22:00,
2013-03-16 20:24:00,46.9,32.9,29.74,WSW,240,4.0,9.0,58,0.00,,,0.00,Wunderground v.1.15,2013-03-17 02:24:00,
2013-03-16 20:27:00,46.8,32.8,29.74,West,270,5.0,9.0,58,0.00,,,0.00,Wunderground v.1.15,2013-03-17 02:27:00,
2013-03-16 20:28:00,46.8,32.8,29.74,West,278,4.0,9.0,58,0.00,,,0.00,Wunderground v.1.15,2013-03-17 02:28:00,
2013-03-16 20:29:00,46.8,32.8,29.74,West,270,4.0,9.0,58,0.00,,,0.00,Wunderground v.1.15,2013-03-17 02:29:00,
2013-03-16 20:33:00,46.7,32.7,29.74,West,273,3.0,5.0,58,0.00,,,0.00,Wunderground v.1.15,2013-03-17 02:33:00,
2013-03-16 20:34:00,46.5,32.5,29.75,West,266,4.0,5.0,58,0.00,,,0.00,Wunderground v.1.15,2013-03-17 02:34:00,
2013-03-16 20:39:00,46.3,31.9,29.75,WSW,253,1.0,5.0,57,0.00,,,0.00,Wunderground v.1.15,2013-03-17 02:39:00,
2013-03-16 20:40:00,46.3,31.9,29.75,WSW,253,0.0,3.0,57,0.00,,,0.00,Wunderground v.1.15,2013-03-17 02:40:00,
2013-03-16 20:44:00,46.0,31.6,29.75,NE,47,4.0,6.0,57,0.00,,,0.00,Wunderground v.1.15,2013-03-17 02:44:00,
2013-03-16 20:46:00,45.8,31.9,29.76,East,86,4.0,6.0,58,0.00,,,0.00,Wunderground v.1.15,2013-03-17 02:46:00,
2013-03-16 20:47:00,45.5,31.6,29.76,ENE,63,2.0,6.0,58,0.00,,,0.00,Wunderground v.1.15,2013-03-17 02:47:00,
2013-03-16 20:50:00,45.0,31.5,29.76,NW,325,4.0,4.0,59,0.00,,,0.00,Wunderground v.1.15,2013-03-17 02:50:00,
2013-03-16 20:51:00,44.8,31.3,29.76,NNW,347,3.0,4.0,59,0.00,,,0.00,Wunderground v.1.15,2013-03-17 02:51:00,
2013-03-16 20:52:00,44.8,31.3,29.76,East,82,2.0,4.0,59,0.00,,,0.00,Wunderground v.1.15,2013-03-17 02:52:00,
2013-03-16 20:55:00,44.5,31.1,29.76,SSW,200,3.0,4.0,59,0.00,,,0.00,Wunderground v.1.15,2013-03-17 02:55:00,
2013-03-16 20:56:00,44.4,31.4,29.76,SSW,212,4.0,4.0,60,0.00,,,0.00,Wunderground v.1.15,2013-03-17 02:56:00,
2013-03-16 20:57:00,44.2,31.2,29.76,South,174,3.0,4.0,60,0.00,,,0.00,Wunderground v.1.15,2013-03-17 02:57:00,
2013-03-16 21:00:00,43.8,31.6,29.76,SE,131,2.0,3.0,62,0.00,,,0.00,Wunderground v.1.15,2013-03-17 03:00:00,
2013-03-16 21:01:00,43.7,31.5,29.76,SE,129,0.0,3.0,62,0.00,,,0.00,Wunderground v.1.15,2013-03-17 03:01:00,
2013-03-16 21:02:00,43.6,31.4,29.76,West,269,1.0,3.0,62,0.00,,,0.00,Wunderground v.1.15,2013-03-17 03:02:00,
2013-03-16 21:05:00,43.5,31.3,29.76,WSW,256,5.0,5.0,62,0.00,,,0.00,Wunderground v.1.15,2013-03-17 03:05:00,
2013-03-16 21:06:00,43.5,31.3,29.76,WSW,257,5.0,6.0,62,0.00,,,0.00,Wunderground v.1.15,2013-03-17 03:06:00,
2013-03-16 21:07:00,43.5,31.3,29.76,WSW,252,6.0,6.0,62,0.00,,,0.00,Wunderground v.1.15,2013-03-17 03:07:00,
2013-03-16 21:10:00,43.5,31.3,29.76,WSW,249,3.0,4.0,62,0.00,,,0.00,Wunderground v.1.15,2013-03-17 03:10:00,
2013-03-16 21:11:00,43.4,31.2,29.76,WSW,238,4.0,4.0,62,0.00,,,0.00,Wunderground v.1.15,2013-03-17 03:11:00,
2013-03-16 21:12:00,43.4,31.2,29.76,WSW,240,4.0,4.0,62,0.00,,,0.00,Wunderground v.1.15,2013-03-17 03:12:00,
2013-03-16 21:13:00,43.4,31.2,29.76,WSW,243,3.0,4.0,62,0.00,,,0.00,Wunderground v.1.15,2013-03-17 03:13:00,
2013-03-16 21:17:00,43.0,30.9,29.76,SW,233,6.0,7.0,62,0.00,,,0.00,Wunderground v.1.15,2013-03-17 03:17:00,
2013-03-16 21:18:00,43.0,30.9,29.76,WSW,256,7.0,8.0,62,0.00,,,0.00,Wunderground v.1.15,2013-03-17 03:18:00,
2013-03-16 21:22:00,42.9,30.8,29.76,WSW,257,6.0,8.0,62,0.00,,,0.00,Wunderground v.1.15,2013-03-17 03:22:00,
2013-03-16 21:25:00,42.9,30.4,29.76,West,273,3.0,8.0,61,0.00,,,0.00,Wunderground v.1.15,2013-03-17 03:25:00,
2013-03-16 21:27:00,42.6,30.1,29.76,West,264,2.0,8.0,61,0.00,,,0.00,Wunderground v.1.15,2013-03-17 03:27:00,
2013-03-16 21:30:00,42.2,30.5,29.76,South,185,5.0,5.0,63,0.00,,,0.00,Wunderground v.1.15,2013-03-17 03:30:00,
2013-03-16 21:32:00,42.1,31.2,29.76,SSW,193,7.0,7.0,65,0.00,,,0.00,Wunderground v.1.15,2013-03-17 03:32:00,
2013-03-16 21:36:00,41.8,30.5,29.77,SW,217,2.0,7.0,64,0.00,,,0.00,Wunderground v.1.15,2013-03-17 03:36:00,
2013-03-16 21:38:00,41.7,30.4,29.77,South,181,3.0,7.0,64,0.00,,,0.00,Wunderground v.1.15,2013-03-17 03:38:00,
2013-03-16 21:39:00,41.7,30.4,29.77,SSE,160,3.0,7.0,64,0.00,,,0.00,Wunderground v.1.15,2013-03-17 03:39:00,
2013-03-16 21:41:00,41.7,31.2,29.77,SW,218,5.0,5.0,66,0.00,,,0.00,Wunderground v.1.15,2013-03-17 03:41:00,
2013-03-16 21:44:00,41.6,30.3,29.77,West,266,5.0,6.0,64,0.00,,,0.00,Wunderground v.1.15,2013-03-17 03:44:00,
2013-03-16 21:46:00,41.1,29.5,29.77,West,260,4.0,6.0,63,0.00,,,0.00,Wunderground v.1.15,2013-03-17 03:46:00,
2013-03-16 21:50:00,40.5,29.7,29.77,SW,236,3.0,4.0,65,0.00,,,0.00,Wunderground v.1.15,2013-03-17 03:50:00,
2013-03-16 21:51:00,40.6,30.1,29.78,WSW,256,3.0,4.0,66,0.00,,,0.00,Wunderground v.1.15,2013-03-17 03:51:00,
2013-03-16 21:55:00,40.6,30.5,29.77,SSE,158,1.0,4.0,67,0.00,,,0.00,Wunderground v.1.15,2013-03-17 03:55:00,
2013-03-16 21:56:00,40.6,30.5,29.77,SSE,158,0.0,4.0,67,0.00,,,0.00,Wunderground v.1.15,2013-03-17 03:56:00,
2013-03-16 21:57:00,40.6,30.5,29.77,SSE,158,0.0,4.0,67,0.00,,,0.00,Wunderground v.1.15,2013-03-17 03:57:00,
2013-03-16 22:00:00,40.2,30.1,29.77,WSW,257,3.0,3.0,67,0.00,,,0.00,Wunderground v.1.15,2013-03-17 04:00:00,
2013-03-16 22:05:00,39.7,29.6,29.77,West,277,6.0,6.0,67,0.00,,,0.00,Wunderground v.1.15,2013-03-17 04:05:00,
2013-03-16 22:07:00,39.9,29.8,29.77,WSW,257,5.0,6.0,67,0.00,,,0.00,Wunderground v.1.15,2013-03-17 04:07:00,
2013-03-16 22:10:00,39.7,29.6,29.77,West,260,6.0,6.0,67,0.00,,,0.00,Wunderground v.1.15,2013-03-17 04:10:00,
2013-03-16 22:12:00,39.8,29.7,29.77,WSW,252,6.0,7.0,67,0.00,,,0.00,Wunderground v.1.15,2013-03-17 04:12:00,
2013-03-16 22:15:00,40.1,30.0,29.77,West,267,5.0,7.0,67,0.00,,,0.00,Wunderground v.1.15,2013-03-17 04:15:00,
2013-03-16 22:17:00,40.2,30.1,29.77,WSW,243,4.0,7.0,67,0.00,,,0.00,Wunderground v.1.15,2013-03-17 04:17:00,
2013-03-16 22:18:00,40.3,29.8,29.77,West,263,5.0,7.0,66,0.00,,,0.00,Wunderground v.1.15,2013-03-17 04:18:00,
2013-03-16 22:21:00,40.4,29.9,29.77,WSW,257,5.0,6.0,66,0.00,,,0.00,Wunderground v.1.15,2013-03-17 04:21:00,
2013-03-16 22:22:00,40.4,29.6,29.77,WSW,256,4.0,6.0,65,0.00,,,0.00,Wunderground v.1.15,2013-03-17 04:22:00,
2013-03-16 22:23:00,40.4,29.2,29.77,WSW,255,4.0,6.0,64,0.00,,,0.00,Wunderground v.1.15,2013-03-17 04:23:00,
2013-03-16 22:25:00,40.2,29.4,29.77,SW,225,3.0,6.0,65,0.00,,,0.00,Wunderground v.1.15,2013-03-17 04:25:00,
2013-03-16 22:26:00,40.2,29.4,29.77,SW,233,5.0,6.0,65,0.00,,,0.00,Wunderground v.1.15,2013-03-17 04:26:00,
2013-03-16 22:27:00,40.3,29.5,29.77,WSW,238,4.0,6.0,65,0.00,,,0.00,Wunderground v.1.15,2013-03-17 04:27:00,
2013-03-16 22:29:00,40.6,29.4,29.77,WSW,243,2.0,6.0,64,0.00,,,0.00,Wunderground v.1.15,2013-03-17 04:29:00,
2013-03-16 22:31:00,40.4,29.6,29.77,SW,224,4.0,4.0,65,0.00,,,0.00,Wunderground v.1.15,2013-03-17 04:31:00,
2013-03-16 22:32:00,40.4,29.6,29.77,WSW,245,5.0,5.0,65,0.00,,,0.00,Wunderground v.1.15,2013-03-17 04:32:00,
2013-03-16 22:34:00,40.4,29.6,29.78,SW,221,2.0,6.0,65,0.00,,,0.00,Wunderground v.1.15,2013-03-17 04:34:00,
2013-03-16 22:36:00,40.6,29.7,29.77,WSW,257,1.0,6.0,65,0.00,,,0.00,Wunderground v.1.15,2013-03-17 04:36:00,
2013-03-16 22:37:00,40.5,29.7,29.77,SSW,210,3.0,6.0,65,0.00,,,0.00,Wunderground v.1.15,2013-03-17 04:37:00,
2013-03-16 22:39:00,40.4,30.3,29.77,SW,218,3.0,6.0,67,0.00,,,0.00,Wunderground v.1.15,2013-03-17 04:39:00,
2013-03-16 22:41:00,40.2,30.5,29.77,SW,214,4.0,4.0,68,0.00,,,0.00,Wunderground v.1.15,2013-03-17 04:41:00,
2013-03-16 22:42:00,40.1,30.4,29.77,SW,218,4.0,5.0,68,0.00,,,0.00,Wunderground v.1.15,2013-03-17 04:42:00,
2013-03-16 22:45:00,40.0,29.6,29.77,SW,236,1.0,5.0,66,0.00,,,0.00,Wunderground v.1.15,2013-03-17 04:45:00,
2013-03-16 22:47:00,40.0,29.6,29.77,West,267,1.0,5.0,66,0.00,,,0.00,Wunderground v.1.15,2013-03-17 04:47:00,
2013-03-16 22:48:00,40.0,29.6,29.77,West,269,0.0,5.0,66,0.00,,,0.00,Wunderground v.1.15,2013-03-17 04:48:00,
2013-03-16 22:50:00,39.8,29.0,29.77,WSW,240,1.0,3.0,65,0.00,,,0.00,Wunderground v.1.15,2013-03-17 04:50:00,
2013-03-16 22:52:00,39.8,29.0,29.77,WSW,249,2.0,3.0,65,0.00,,,0.00,Wunderground v.1.15,2013-03-17 04:52:00,
2013-03-16 22:53:00,39.8,29.0,29.77,West,260,3.0,3.0,65,0.00,,,0.00,Wunderground v.1.15,2013-03-17 04:53:00,
2013-03-16 22:54:00,39.8,29.0,29.77,SW,228,1.0,3.0,65,0.00,,,0.00,Wunderground v.1.15,2013-03-17 04:54:00,
2013-03-16 22:55:00,39.7,28.9,29.77,SW,225,2.0,3.0,65,0.00,,,0.00,Wunderground v.1.15,2013-03-17 04:55:00,
2013-03-16 22:57:00,39.5,28.7,29.77,West,266,1.0,3.0,65,0.00,,,0.00,Wunderground v.1.15,2013-03-17 04:57:00,
2013-03-16 22:58:00,39.4,28.6,29.77,West,269,1.0,3.0,65,0.00,,,0.00,Wunderground v.1.15,2013-03-17 04:58:00,
2013-03-16 22:59:00,39.2,28.4,29.77,West,269,1.0,3.0,65,0.00,,,0.00,Wunderground v.1.15,2013-03-17 04:59:00,
2013-03-16 23:00:00,38.9,28.5,29.77,SW,233,1.0,2.0,66,0.00,,,0.00,Wunderground v.1.15,2013-03-17 05:00:00,
2013-03-16 23:02:00,38.7,28.7,29.77,WSW,255,4.0,4.0,67,0.00,,,0.00,Wunderground v.1.15,2013-03-17 05:02:00,
2013-03-16 23:03:00,38.7,28.7,29.77,WSW,255,6.0,6.0,67,0.00,,,0.00,Wunderground v.1.15,2013-03-17 05:03:00,
2013-03-16 23:05:00,38.4,28.0,29.77,West,264,6.0,6.0,66,0.00,,,0.00,Wunderground v.1.15,2013-03-17 05:05:00,
2013-03-16 23:06:00,38.1,28.1,29.77,West,267,7.0,7.0,67,0.00,,,0.00,Wunderground v.1.15,2013-03-17 05:06:00,
2013-03-16 23:08:00,38.1,28.5,29.77,West,267,2.0,7.0,68,0.00,,,0.00,Wunderground v.1.15,2013-03-17 05:08:00,
2013-03-16 23:11:00,38.0,28.4,29.77,SSW,212,3.0,5.0,68,0.00,,,0.00,Wunderground v.1.15,2013-03-17 05:11:00,
2013-03-16 23:12:00,38.0,28.4,29.77,SSW,211,4.0,5.0,68,0.00,,,0.00,Wunderground v.1.15,2013-03-17 05:12:00,
2013-03-16 23:13:00,38.1,28.5,29.76,SSW,202,4.0,5.0,68,0.00,,,0.00,Wunderground v.1.15,2013-03-17 05:13:00,
2013-03-16 23:14:00,38.1,29.2,29.76,South,181,4.0,5.0,70,0.00,,,0.00,Wunderground v.1.15,2013-03-17 05:14:00,
2013-03-16 23:17:00,38.2,29.3,29.76,WSW,248,3.0,5.0,70,0.00,,,0.00,Wunderground v.1.15,2013-03-17 05:17:00,
2013-03-16 23:18:00,38.3,29.4,29.76,WSW,238,3.0,5.0,70,0.00,,,0.00,Wunderground v.1.15,2013-03-17 05:18:00,
2013-03-16 23:19:00,38.5,28.5,29.76,SSW,194,4.0,5.0,67,0.00,,,0.00,Wunderground v.1.15,2013-03-17 05:19:00,
2013-03-16 23:22:00,39.7,28.5,29.76,WSW,252,4.0,7.0,64,0.00,,,0.00,Wunderground v.1.15,2013-03-17 05:22:00,
2013-03-16 23:23:00,40.0,28.4,29.76,WSW,238,4.0,7.0,63,0.00,,,0.00,Wunderground v.1.15,2013-03-17 05:23:00,
2013-03-16 23:24:00,40.2,28.2,29.76,SSW,210,2.0,7.0,62,0.00,,,0.00,Wunderground v.1.15,2013-03-17 05:24:00,
2013-03-16 23:27:00,40.7,28.3,29.76,SSE,167,1.0,7.0,61,0.00,,,0.00,Wunderground v.1.15,2013-03-17 05:27:00,
2013-03-16 23:28:00,40.7,27.5,29.76,WSW,245,2.0,7.0,59,0.00,,,0.00,Wunderground v.1.15,2013-03-17 05:28:00,
2013-03-16 23:29:00,40.8,27.6,29.76,WSW,250,5.0,7.0,59,0.00,,,0.00,Wunderground v.1.15,2013-03-17 05:29:00,
2013-03-16 23:32:00,40.6,27.8,29.76,West,280,1.0,4.0,60,0.00,,,0.00,Wunderground v.1.15,2013-03-17 05:32:00,
2013-03-16 23:35:00,40.4,27.2,29.76,SSE,156,3.0,4.0,59,0.00,,,0.00,Wunderground v.1.15,2013-03-17 05:35:00,
2013-03-16 23:37:00,40.3,27.1,29.76,SSE,162,4.0,5.0,59,0.00,,,0.00,Wunderground v.1.15,2013-03-17 05:37:00,
2013-03-16 23:38:00,40.3,27.1,29.76,SSE,155,3.0,5.0,59,0.00,,,0.00,Wunderground v.1.15,2013-03-17 05:38:00,
2013-03-16 23:40:00,40.1,26.9,29.76,SSW,195,5.0,5.0,59,0.00,,,0.00,Wunderground v.1.15,2013-03-17 05:40:00,
2013-03-16 23:42:00,40.1,26.9,29.76,WSW,250,5.0,5.0,59,0.00,,,0.00,Wunderground v.1.15,2013-03-17 05:42:00,
2013-03-16 23:43:00,40.0,26.8,29.76,WSW,238,5.0,7.0,59,0.00,,,0.00,Wunderground v.1.15,2013-03-17 05:43:00,
2013-03-16 23:46:00,39.5,27.2,29.76,WSW,248,4.0,7.0,61,0.00,,,0.00,Wunderground v.1.15,2013-03-17 05:46:00,
2013-03-16 23:47:00,39.4,27.1,29.76,WSW,250,3.0,7.0,61,0.00,,,0.00,Wunderground v.1.15,2013-03-17 05:47:00,
2013-03-16 23:48:00,39.4,27.1,29.76,West,263,4.0,7.0,61,0.00,,,0.00,Wunderground v.1.15,2013-03-17 05:48:00,
2013-03-16 23:51:00,39.0,27.1,29.76,West,260,4.0,6.0,62,0.00,,,0.00,Wunderground v.1.15,2013-03-17 05:51:00,
2013-03-16 23:52:00,38.6,26.7,29.76,West,264,4.0,6.0,62,0.00,,,0.00,Wunderground v.1.15,2013-03-17 05:52:00,
2013-03-16 23:53:00,38.4,26.5,29.76,WSW,249,4.0,6.0,62,0.00,,,0.00,Wunderground v.1.15,2013-03-17 05:53:00,
2013-03-16 23:56:00,38.1,27.0,29.76,SSW,195,4.0,6.0,64,0.00,,,0.00,Wunderground v.1.15,2013-03-17 05:56:00,
2013-03-16 23:57:00,38.0,26.9,29.76,SW,228,5.0,7.0,64,0.00,,,0.00,Wunderground v.1.15,2013-03-17 05:57:00,
2013-03-16 23:58:00,38.0,26.9,29.76,SW,225,5.0,7.0,64,0.00,,,0.00,Wunderground v.1.15,2013-03-17 05:58:00,